Observation data for Fort Lancaster on 01/20/2019      Previous  Date  Next       Current Mesonet Observations  Soil Data  Daily Summary Page  Observations in Plain Language
KLA1 200600Z 15002KT 02/M01 A3033 RMK A01 T00221009  RH  080%=      5-min Rain = 0
KLA1 200601Z 15002KT 02/M01 A3033 RMK A01 T00201010  RH  081%=      5-min Rain = 0
KLA1 200602Z 15002KT 02/M01 A3033 RMK A01 T00171011  RH  082%=      5-min Rain = 0
KLA1 200603Z 16002KT 02/M01 A3033 RMK A01 T00151011  RH  083%=      5-min Rain = 0
KLA1 200604Z 15001KT 01/M01 A3034 RMK A01 T00131011  RH  084%=      5-min Rain = 0
KLA1 200605Z 15001KT 01/M01 A3034 RMK A01 T00121011  RH  085%=      5-min Rain = 0
KLA1 200606Z 14001KT 01/M01 A3034 RMK A01 T00111011  RH  085%=      5-min Rain = 0
KLA1 200607Z 13002KT 01/M01 A3034 RMK A01 T00101011  RH  086%=      5-min Rain = 0
KLA1 200608Z 14002KT 01/M01 A3034 RMK A01 T00091011  RH  086%=      5-min Rain = 0
KLA1 200609Z 15002KT 01/M01 A3034 RMK A01 T00091011  RH  087%=      5-min Rain = 0
KLA1 200610Z 15001KT 01/M01 A3034 RMK A01 T00091011  RH  087%=      5-min Rain = 0
KLA1 200611Z 16001KT 01/M01 A3034 RMK A01 T00081011  RH  087%=      5-min Rain = 0
KLA1 200612Z 16000KT 01/M01 A3034 RMK A01 T00081010  RH  087%=      5-min Rain = 0
KLA1 200613Z 16001KT 01/M01 A3034 RMK A01 T00081010  RH  088%=      5-min Rain = 0
KLA1 200614Z 16001KT 01/M01 A3034 RMK A01 T00081010  RH  088%=      5-min Rain = 0
KLA1 200615Z 14001KT 01/M01 A3035 RMK A01 T00081010  RH  088%=      5-min Rain = 0
KLA1 200616Z 14001KT 01/M01 A3035 RMK A01 T00081010  RH  088%=      5-min Rain = 0
KLA1 200617Z 14001KT 01/M01 A3035 RMK A01 T00081010  RH  088%=      5-min Rain = 0
KLA1 200618Z 14001KT 01/M01 A3035 RMK A01 T00091009  RH  088%=      5-min Rain = 0
KLA1 200619Z 10001KT 01/M01 A3034 RMK A01 T00091009  RH  088%=      5-min Rain = 0
KLA1 200620Z 08002KT 01/M01 A3034 RMK A01 T00091009  RH  088%=      5-min Rain = 0
KLA1 200621Z 07003KT 01/M01 A3034 RMK A01 T00091010  RH  087%=      5-min Rain = 0
KLA1 200622Z 05004KT 01/M01 A3035 RMK A01 T00091010  RH  088%=      5-min Rain = 0
KLA1 200623Z 04004KT 01/M01 A3035 RMK A01 T00081010  RH  088%=      5-min Rain = 0
KLA1 200624Z 04004KT 01/M01 A3034 RMK A01 T00081010  RH  088%=      5-min Rain = 0
KLA1 200625Z 03003KT 01/M01 A3034 RMK A01 T00081010  RH  088%=      5-min Rain = 0
KLA1 200626Z 03002KT 01/M01 A3034 RMK A01 T00081010  RH  088%=      5-min Rain = 0
KLA1 200627Z 03002KT 01/M01 A3034 RMK A01 T00091008  RH  089%=      5-min Rain = 0
KLA1 200628Z 04001KT 01/M01 A3035 RMK A01 T00111006  RH  088%=      5-min Rain = 0
KLA1 200629Z 06001KT 01/M00 A3035 RMK A01 T00141004  RH  088%=      5-min Rain = 0
KLA1 200630Z 05002KT 02/M00 A3035 RMK A01 T00161004  RH  087%=      5-min Rain = 0
KLA1 200631Z 03002KT 02/M00 A3035 RMK A01 T00171004  RH  086%=      5-min Rain = 0
KLA1 200632Z 02004KT 02/M01 A3035 RMK A01 T00181005  RH  084%=      5-min Rain = 0
KLA1 200633Z 01003KT 02/M01 A3035 RMK A01 T00181007  RH  084%=      5-min Rain = 0
KLA1 200634Z 01004KT 02/M01 A3035 RMK A01 T00171008  RH  084%=      5-min Rain = 0
KLA1 200635Z 01001KT 02/M01 A3035 RMK A01 T00161008  RH  084%=      5-min Rain = 0
KLA1 200636Z 34001KT 02/M01 A3035 RMK A01 T00181006  RH  085%=      5-min Rain = 0
KLA1 200637Z 00000KT 02/M01 A3035 RMK A01 T00181006  RH  084%=      5-min Rain = 0
KLA1 200638Z 04000KT 02/M01 A3035 RMK A01 T00201005  RH  084%=      5-min Rain = 0
KLA1 200639Z 00000KT 02/M00 A3035 RMK A01 T00221004  RH  083%=      5-min Rain = 0
KLA1 200640Z 00000KT 02/M00 A3035 RMK A01 T00241004  RH  082%=      5-min Rain = 0
KLA1 200641Z 00000KT 03/M01 A3035 RMK A01 T00251005  RH  081%=      5-min Rain = 0
KLA1 200642Z 00000KT 03/M01 A3035 RMK A01 T00251006  RH  081%=      5-min Rain = 0
KLA1 200643Z 00000KT 02/M01 A3035 RMK A01 T00241007  RH  080%=      5-min Rain = 0
KLA1 200644Z 00000KT 02/M01 A3035 RMK A01 T00221008  RH  081%=      5-min Rain = 0
KLA1 200645Z 15000KT 02/M01 A3035 RMK A01 T00201009  RH  081%=      5-min Rain = 0
KLA1 200646Z 18001KT 02/M01 A3035 RMK A01 T00191010  RH  081%=      5-min Rain = 0
KLA1 200647Z 18001KT 02/M01 A3035 RMK A01 T00171012  RH  082%=      5-min Rain = 0
KLA1 200648Z 18001KT 01/M01 A3035 RMK A01 T00141013  RH  082%=      5-min Rain = 0
KLA1 200649Z 18000KT 01/M01 A3034 RMK A01 T00121014  RH  083%=      5-min Rain = 0
KLA1 200650Z 25001KT 01/M01 A3034 RMK A01 T00111013  RH  084%=      5-min Rain = 0
KLA1 200651Z 25002KT 01/M01 A3034 RMK A01 T00111010  RH  086%=      5-min Rain = 0
KLA1 200652Z 27003KT 01/M01 A3034 RMK A01 T00101009  RH  087%=      5-min Rain = 0
KLA1 200653Z 25002KT 01/M01 A3034 RMK A01 T00091008  RH  088%=      5-min Rain = 0
KLA1 200654Z 25001KT 01/M01 A3034 RMK A01 T00091007  RH  089%=      5-min Rain = 0
KLA1 200655Z 24001KT 01/M01 A3034 RMK A01 T00091007  RH  089%=      5-min Rain = 0
KLA1 200656Z 20001KT 01/M01 A3034 RMK A01 T00091007  RH  089%=      5-min Rain = 0
KLA1 200657Z 19001KT 01/M01 A3034 RMK A01 T00091007  RH  089%=      5-min Rain = 0
KLA1 200658Z 23001KT 01/M01 A3034 RMK A01 T00091007  RH  089%=      5-min Rain = 0
KLA1 200659Z 26002KT 01/M01 A3034 RMK A01 T00081008  RH  089%=      5-min Rain = 0
KLA1 200700Z 27002KT 01/M01 A3034 RMK A01 T00071010  RH  088%=      5-min Rain = 0
KLA1 200701Z 27001KT 01/M01 A3034 RMK A01 T00061011  RH  089%=      5-min Rain = 0
KLA1 200702Z 26000KT 01/M01 A3034 RMK A01 T00051011  RH  089%=      5-min Rain = 0
KLA1 200703Z 25000KT 00/M01 A3034 RMK A01 T00041011  RH  089%=      5-min Rain = 0
KLA1 200704Z 00000KT 00/M01 A3034 RMK A01 T00041011  RH  090%=      5-min Rain = 0
KLA1 200705Z 26000KT 00/M01 A3034 RMK A01 T00041011  RH  090%=      5-min Rain = 0
KLA1 200706Z 25000KT 00/M01 A3034 RMK A01 T00031012  RH  090%=      5-min Rain = 0
KLA1 200707Z 25001KT 00/M01 A3034 RMK A01 T00031011  RH  090%=      5-min Rain = 0
KLA1 200708Z 25000KT 00/M01 A3034 RMK A01 T00041010  RH  091%=      5-min Rain = 0
KLA1 200709Z 00000KT 00/M01 A3034 RMK A01 T00041010  RH  090%=      5-min Rain = 0
KLA1 200710Z 00000KT 00/M01 A3034 RMK A01 T00031012  RH  090%=      5-min Rain = 0
KLA1 200711Z 00000KT 00/M01 A3034 RMK A01 T00021013  RH  090%=      5-min Rain = 0
KLA1 200712Z 00000KT 00/M01 A3034 RMK A01 T00021013  RH  090%=      5-min Rain = 0
KLA1 200713Z 00000KT 00/M01 A3034 RMK A01 T00011014  RH  090%=      5-min Rain = 0
KLA1 200714Z 00000KT 00/M01 A3034 RMK A01 T00011013  RH  090%=      5-min Rain = 0
KLA1 200715Z 00000KT 00/M01 A3033 RMK A01 T00011012  RH  090%=      5-min Rain = 0
KLA1 200716Z 00000KT 00/M01 A3033 RMK A01 T00021012  RH  091%=      5-min Rain = 0
KLA1 200717Z 00000KT 00/M01 A3033 RMK A01 T00021012  RH  091%=      5-min Rain = 0
KLA1 200718Z 00000KT 00/M01 A3033 RMK A01 T00021012  RH  091%=      5-min Rain = 0
KLA1 200719Z 00000KT 00/M01 A3033 RMK A01 T00021012  RH  091%=      5-min Rain = 0
KLA1 200720Z 00000KT 00/M01 A3033 RMK A01 T00021011  RH  091%=      5-min Rain = 0
KLA1 200721Z 00000KT 00/M01 A3033 RMK A01 T00021011  RH  091%=      5-min Rain = 0
KLA1 200722Z 00000KT 00/M01 A3033 RMK A01 T00041010  RH  091%=      5-min Rain = 0
KLA1 200723Z 00000KT 01/M01 A3033 RMK A01 T00051009  RH  091%=      5-min Rain = 0
KLA1 200724Z 00000KT 01/M01 A3033 RMK A01 T00061008  RH  090%=      5-min Rain = 0
KLA1 200725Z 03001KT 01/M01 A3033 RMK A01 T00081007  RH  090%=      5-min Rain = 0
KLA1 200726Z 04001KT 01/M01 A3033 RMK A01 T00081008  RH  089%=      5-min Rain = 0
KLA1 200727Z 03002KT 01/M01 A3033 RMK A01 T00081009  RH  088%=      5-min Rain = 0
KLA1 200728Z 03002KT 01/M01 A3033 RMK A01 T00071011  RH  088%=      5-min Rain = 0
KLA1 200729Z 02002KT 01/M01 A3033 RMK A01 T00071011  RH  088%=      5-min Rain = 0
KLA1 200730Z 02001KT 01/M01 A3033 RMK A01 T00071011  RH  088%=      5-min Rain = 0
KLA1 200731Z 01001KT 01/M01 A3032 RMK A01 T00071011  RH  088%=      5-min Rain = 0
KLA1 200732Z 01001KT 01/M01 A3032 RMK A01 T00071011  RH  088%=      5-min Rain = 0
KLA1 200733Z 01001KT 01/M01 A3032 RMK A01 T00051012  RH  088%=      5-min Rain = 0
KLA1 200734Z 01001KT 00/M01 A3032 RMK A01 T00041014  RH  088%=      5-min Rain = 0
KLA1 200735Z 01001KT 00/M01 A3032 RMK A01 T00031014  RH  088%=      5-min Rain = 0
KLA1 200736Z 00001KT 00/M01 A3032 RMK A01 T00031013  RH  089%=      5-min Rain = 0
KLA1 200737Z 34001KT 00/M01 A3032 RMK A01 T00031013  RH  089%=      5-min Rain = 0
KLA1 200738Z 28001KT 00/M01 A3032 RMK A01 T00031012  RH  090%=      5-min Rain = 0
KLA1 200739Z 26001KT 00/M01 A3032 RMK A01 T00031011  RH  090%=      5-min Rain = 0
KLA1 200740Z 24001KT 00/M01 A3033 RMK A01 T00031011  RH  090%=      5-min Rain = 0
KLA1 200741Z 24001KT 00/M01 A3033 RMK A01 T00031011  RH  090%=      5-min Rain = 0
KLA1 200742Z 24001KT 00/M01 A3033 RMK A01 T00031011  RH  090%=      5-min Rain = 0
KLA1 200743Z 24001KT 00/M01 A3033 RMK A01 T00031011  RH  090%=      5-min Rain = 0
KLA1 200744Z 24001KT 00/M01 A3033 RMK A01 T00031012  RH  090%=      5-min Rain = 0
KLA1 200745Z 24001KT 00/M01 A3032 RMK A01 T00021013  RH  090%=      5-min Rain = 0
KLA1 200746Z 24001KT 00/M01 A3032 RMK A01 T00011013  RH  090%=      5-min Rain = 0
KLA1 200747Z 24001KT 00/M01 A3032 RMK A01 T00011013  RH  090%=      5-min Rain = 0
KLA1 200748Z 25001KT 00/M01 A3032 RMK A01 T00011012  RH  091%=      5-min Rain = 0
KLA1 200749Z 25001KT 00/M01 A3032 RMK A01 T00021011  RH  091%=      5-min Rain = 0
KLA1 200750Z 25001KT 00/M01 A3032 RMK A01 T00021010  RH  091%=      5-min Rain = 0
KLA1 200751Z 25001KT 00/M01 A3032 RMK A01 T00021010  RH  091%=      5-min Rain = 0
KLA1 200752Z 25000KT 00/M01 A3032 RMK A01 T00011012  RH  091%=      5-min Rain = 0
KLA1 200753Z 00000KT M00/M02 A3032 RMK A01 T10011015  RH  090%=      5-min Rain = 0
KLA1 200754Z 00000KT M00/M02 A3032 RMK A01 T10021017  RH  090%=      5-min Rain = 0
KLA1 200755Z 00000KT M00/M02 A3032 RMK A01 T10031017  RH  090%=      5-min Rain = 0
KLA1 200756Z 00000KT M00/M02 A3032 RMK A01 T10041017  RH  091%=      5-min Rain = 0
KLA1 200757Z 00000KT M00/M02 A3032 RMK A01 T10041016  RH  091%=      5-min Rain = 0
KLA1 200758Z 00000KT M00/M01 A3032 RMK A01 T10031014  RH  092%=      5-min Rain = 0
KLA1 200759Z 00000KT M00/M01 A3032 RMK A01 T10011011  RH  093%=      5-min Rain = 0
KLA1 200800Z 00000KT 00/M01 A3032 RMK A01 T00021008  RH  093%=      5-min Rain = 0
KLA1 200801Z 00000KT 00/M01 A3032 RMK A01 T00041007  RH  093%=      5-min Rain = 0
KLA1 200802Z 00000KT 01/M01 A3032 RMK A01 T00051007  RH  092%=      5-min Rain = 0
KLA1 200803Z 00000KT 01/M01 A3032 RMK A01 T00051007  RH  091%=      5-min Rain = 0
KLA1 200804Z 00000KT 01/M01 A3032 RMK A01 T00061007  RH  091%=      5-min Rain = 0
KLA1 200805Z 00000KT 01/M01 A3032 RMK A01 T00071007  RH  090%=      5-min Rain = 0
KLA1 200806Z 01001KT 01/M01 A3032 RMK A01 T00071008  RH  090%=      5-min Rain = 0
KLA1 200807Z 01001KT 01/M01 A3032 RMK A01 T00071008  RH  090%=      5-min Rain = 0
KLA1 200808Z 01001KT 01/M01 A3032 RMK A01 T00091007  RH  089%=      5-min Rain = 0
KLA1 200809Z 01002KT 01/M01 A3032 RMK A01 T00081009  RH  088%=      5-min Rain = 0
KLA1 200810Z 00001KT 01/M01 A3032 RMK A01 T00081010  RH  088%=      5-min Rain = 0
KLA1 200811Z 00001KT 01/M01 A3032 RMK A01 T00071011  RH  088%=      5-min Rain = 0
KLA1 200812Z 00001KT 01/M01 A3032 RMK A01 T00061012  RH  088%=      5-min Rain = 0
KLA1 200813Z 00001KT 01/M01 A3032 RMK A01 T00061012  RH  088%=      5-min Rain = 0
KLA1 200814Z 00001KT 01/M01 A3032 RMK A01 T00061011  RH  089%=      5-min Rain = 0
KLA1 200815Z 00001KT 01/M01 A3032 RMK A01 T00061011  RH  089%=      5-min Rain = 0
KLA1 200816Z 01002KT 01/M01 A3032 RMK A01 T00061011  RH  088%=      5-min Rain = 0
KLA1 200817Z 01001KT 01/M01 A3032 RMK A01 T00051012  RH  089%=      5-min Rain = 0
KLA1 200818Z 36000KT 01/M01 A3032 RMK A01 T00051011  RH  089%=      5-min Rain = 0
KLA1 200819Z 33000KT 01/M01 A3032 RMK A01 T00051011  RH  089%=      5-min Rain = 0
KLA1 200820Z 33000KT 00/M01 A3032 RMK A01 T00041011  RH  090%=      5-min Rain = 0
KLA1 200821Z 33000KT 01/M01 A3032 RMK A01 T00051009  RH  090%=      5-min Rain = 0
KLA1 200822Z 00000KT 01/M01 A3032 RMK A01 T00061008  RH  090%=      5-min Rain = 0
KLA1 200823Z 00000KT 01/M01 A3032 RMK A01 T00071007  RH  090%=      5-min Rain = 0
KLA1 200824Z 00000KT 01/M01 A3032 RMK A01 T00081008  RH  089%=      5-min Rain = 0
KLA1 200825Z 00000KT 01/M01 A3032 RMK A01 T00081008  RH  089%=      5-min Rain = 0
KLA1 200826Z 00000KT 01/M01 A3032 RMK A01 T00091007  RH  089%=      5-min Rain = 0
KLA1 200827Z 00000KT 01/M01 A3032 RMK A01 T00111006  RH  089%=      5-min Rain = 0
KLA1 200828Z 00000KT 01/M01 A3032 RMK A01 T00111006  RH  088%=      5-min Rain = 0
KLA1 200829Z 00000KT 01/M01 A3032 RMK A01 T00111008  RH  088%=      5-min Rain = 0
KLA1 200830Z 00000KT 01/M01 A3032 RMK A01 T00101009  RH  087%=      5-min Rain = 0
KLA1 200831Z 00000KT 01/M01 A3032 RMK A01 T00091010  RH  087%=      5-min Rain = 0
KLA1 200832Z 00000KT 01/M01 A3032 RMK A01 T00081011  RH  087%=      5-min Rain = 0
KLA1 200833Z 00000KT 01/M01 A3032 RMK A01 T00071012  RH  087%=      5-min Rain = 0
KLA1 200834Z 00000KT 01/M01 A3032 RMK A01 T00071011  RH  088%=      5-min Rain = 0
KLA1 200835Z 00000KT 01/M01 A3032 RMK A01 T00061012  RH  088%=      5-min Rain = 0
KLA1 200836Z 00000KT 01/M01 A3032 RMK A01 T00051011  RH  089%=      5-min Rain = 0
KLA1 200837Z 00000KT 01/M01 A3032 RMK A01 T00051011  RH  089%=      5-min Rain = 0
KLA1 200838Z 00000KT 00/M01 A3032 RMK A01 T00041011  RH  089%=      5-min Rain = 0
KLA1 200839Z 23000KT 00/M01 A3032 RMK A01 T00031011  RH  090%=      5-min Rain = 0
KLA1 200840Z 23002KT 00/M01 A3032 RMK A01 T00031011  RH  090%=      5-min Rain = 0
KLA1 200841Z 22002KT 00/M01 A3032 RMK A01 T00031010  RH  091%=      5-min Rain = 0
KLA1 200842Z 22003KT 00/M01 A3033 RMK A01 T00031010  RH  091%=      5-min Rain = 0
KLA1 200843Z 21003KT 00/M01 A3033 RMK A01 T00031010  RH  091%=      5-min Rain = 0
KLA1 200844Z 21003KT 00/M01 A3033 RMK A01 T00021010  RH  092%=      5-min Rain = 0
KLA1 200845Z 20001KT 00/M01 A3032 RMK A01 T00021010  RH  092%=      5-min Rain = 0
KLA1 200846Z 19000KT 00/M01 A3032 RMK A01 T00021010  RH  092%=      5-min Rain = 0
KLA1 200847Z 00000KT 00/M01 A3032 RMK A01 T00021010  RH  092%=      5-min Rain = 0
KLA1 200848Z 00000KT 00/M01 A3032 RMK A01 T00021010  RH  092%=      5-min Rain = 0
KLA1 200849Z 10000KT 00/M01 A3032 RMK A01 T00011012  RH  091%=      5-min Rain = 0
KLA1 200850Z 09001KT M00/M02 A3032 RMK A01 T10011015  RH  090%=      5-min Rain = 0
KLA1 200851Z 08001KT M00/M02 A3032 RMK A01 T10021016  RH  091%=      5-min Rain = 0
KLA1 200852Z 07000KT M00/M02 A3032 RMK A01 T10021015  RH  091%=      5-min Rain = 0
KLA1 200853Z 06001KT M00/M01 A3032 RMK A01 T10021014  RH  092%=      5-min Rain = 0
KLA1 200854Z 06001KT M00/M01 A3032 RMK A01 T10021014  RH  092%=      5-min Rain = 0
KLA1 200855Z 05001KT M00/M01 A3032 RMK A01 T10021013  RH  092%=      5-min Rain = 0
KLA1 200856Z 05001KT M00/M01 A3032 RMK A01 T10011012  RH  093%=      5-min Rain = 0
KLA1 200857Z 05001KT M00/M01 A3032 RMK A01 T10011011  RH  093%=      5-min Rain = 0
KLA1 200858Z 04002KT 00/01 A3032 RMK A01 T00-00-11  RH  093%=      5-min Rain = 0
KLA1 200859Z 03002KT 00/01 A3032 RMK A01 T00-00-11  RH  093%=      5-min Rain = 0
KLA1 200900Z 02004KT 00/M01 A3032 RMK A01 T00011010  RH  093%=      5-min Rain = 0
KLA1 200901Z 02004KT 00/M01 A3032 RMK A01 T00011010  RH  092%=      5-min Rain = 0
KLA1 200902Z 01004KT 00/M01 A3032 RMK A01 T00011011  RH  092%=      5-min Rain = 0
KLA1 200903Z 01004KT 00/M01 A3032 RMK A01 T00011012  RH  091%=      5-min Rain = 0
KLA1 200904Z 36003KT 00/M01 A3032 RMK A01 T00011011  RH  092%=      5-min Rain = 0
KLA1 200905Z 34002KT 00/M01 A3032 RMK A01 T00011011  RH  092%=      5-min Rain = 0
KLA1 200906Z 34001KT 00/M01 A3032 RMK A01 T00021010  RH  092%=      5-min Rain = 0
KLA1 200907Z 34001KT 00/M01 A3032 RMK A01 T00031009  RH  092%=      5-min Rain = 0
KLA1 200908Z 29001KT 00/M01 A3032 RMK A01 T00041008  RH  092%=      5-min Rain = 0
KLA1 200909Z 27001KT 00/M01 A3032 RMK A01 T00041008  RH  091%=      5-min Rain = 0
KLA1 200910Z 28001KT 00/M01 A3032 RMK A01 T00041009  RH  091%=      5-min Rain = 0
KLA1 200911Z 25002KT 00/M01 A3032 RMK A01 T00041009  RH  091%=      5-min Rain = 0
KLA1 200912Z 24003KT 00/M01 A3032 RMK A01 T00041009  RH  091%=      5-min Rain = 0
KLA1 200913Z 23004KT 00/M01 A3032 RMK A01 T00041009  RH  091%=      5-min Rain = 0
KLA1 200914Z 23004KT 00/M01 A3032 RMK A01 T00041010  RH  090%=      5-min Rain = 0
KLA1 200915Z 23004KT 00/M01 A3032 RMK A01 T00021012  RH  090%=      5-min Rain = 0
KLA1 200916Z 24003KT 00/M01 A3032 RMK A01 T00011013  RH  090%=      5-min Rain = 0
KLA1 200917Z 25003KT 00/M01 A3032 RMK A01 T00011012  RH  091%=      5-min Rain = 0
KLA1 200918Z 25002KT 00/01 A3032 RMK A01 T00000-13  RH  091%=      5-min Rain = 0
KLA1 200919Z 25002KT 00/01 A3032 RMK A01 T00-00-13  RH  091%=      5-min Rain = 0
KLA1 200920Z 25002KT M00/M01 A3032 RMK A01 T10011013  RH  091%=      5-min Rain = 0
KLA1 200921Z 25002KT M00/M01 A3032 RMK A01 T10011013  RH  092%=      5-min Rain = 0
KLA1 200922Z 26002KT M00/M01 A3032 RMK A01 T10021014  RH  092%=      5-min Rain = 0
KLA1 200923Z 26002KT M00/M01 A3032 RMK A01 T10031014  RH  092%=      5-min Rain = 0
KLA1 200924Z 26002KT M00/M02 A3032 RMK A01 T10031015  RH  092%=      5-min Rain = 0
KLA1 200925Z 26002KT M01/M02 A3032 RMK A01 T10051016  RH  092%=      5-min Rain = 0
KLA1 200926Z 25001KT M01/M02 A3032 RMK A01 T10061018  RH  092%=      5-min Rain = 0
KLA1 200927Z 25000KT M01/M02 A3032 RMK A01 T10071019  RH  092%=      5-min Rain = 0
KLA1 200928Z 25000KT M01/M02 A3032 RMK A01 T10081019  RH  092%=      5-min Rain = 0
KLA1 200929Z 00000KT M01/M02 A3032 RMK A01 T10091020  RH  092%=      5-min Rain = 0
KLA1 200930Z 00000KT M01/M02 A3032 RMK A01 T10091021  RH  092%=      5-min Rain = 0
KLA1 200931Z 00000KT M01/M02 A3032 RMK A01 T10101021  RH  092%=      5-min Rain = 0
KLA1 200932Z 00000KT M01/M02 A3032 RMK A01 T10111022  RH  092%=      5-min Rain = 0
KLA1 200933Z 00000KT M01/M02 A3032 RMK A01 T10111022  RH  093%=      5-min Rain = 0
KLA1 200934Z 00000KT M01/M02 A3032 RMK A01 T10121022  RH  093%=      5-min Rain = 0
KLA1 200935Z 00000KT M01/M02 A3032 RMK A01 T10121022  RH  093%=      5-min Rain = 0
KLA1 200936Z 00000KT M01/M02 A3032 RMK A01 T10121020  RH  094%=      5-min Rain = 0
KLA1 200937Z 00000KT M01/M02 A3032 RMK A01 T10121020  RH  094%=      5-min Rain = 0
KLA1 200938Z 00000KT M01/M02 A3032 RMK A01 T10121020  RH  094%=      5-min Rain = 0
KLA1 200939Z 13000KT M01/M02 A3032 RMK A01 T10111019  RH  095%=      5-min Rain = 0
KLA1 200940Z 13000KT M01/M02 A3032 RMK A01 T10111018  RH  095%=      5-min Rain = 0
KLA1 200941Z 00000KT M01/M02 A3032 RMK A01 T10101017  RH  095%=      5-min Rain = 0
KLA1 200942Z 08000KT M01/M02 A3032 RMK A01 T10091016  RH  095%=      5-min Rain = 0
KLA1 200943Z 07000KT M01/M02 A3032 RMK A01 T10091016  RH  095%=      5-min Rain = 0
KLA1 200944Z 04000KT M01/M02 A3032 RMK A01 T10091016  RH  095%=      5-min Rain = 0
KLA1 200945Z 02000KT M01/M01 A3032 RMK A01 T10081014  RH  096%=      5-min Rain = 0
KLA1 200946Z 01000KT M01/M01 A3032 RMK A01 T10071013  RH  096%=      5-min Rain = 0
KLA1 200947Z 00000KT M01/M01 A3032 RMK A01 T10061012  RH  095%=      5-min Rain = 0
KLA1 200948Z 04000KT M01/M01 A3032 RMK A01 T10051012  RH  095%=      5-min Rain = 0
KLA1 200949Z 06001KT M01/M01 A3032 RMK A01 T10051012  RH  095%=      5-min Rain = 0
KLA1 200950Z 06001KT M01/M01 A3032 RMK A01 T10051012  RH  095%=      5-min Rain = 0
KLA1 200951Z 04002KT M01/M01 A3032 RMK A01 T10051013  RH  094%=      5-min Rain = 0
KLA1 200952Z 04002KT M01/M01 A3032 RMK A01 T10061014  RH  094%=      5-min Rain = 0
KLA1 200953Z 03001KT M01/M02 A3032 RMK A01 T10071016  RH  094%=      5-min Rain = 0
KLA1 200954Z 04001KT M01/M02 A3032 RMK A01 T10071015  RH  094%=      5-min Rain = 0
KLA1 200955Z 03001KT M01/M02 A3032 RMK A01 T10071015  RH  094%=      5-min Rain = 0
KLA1 200956Z 03001KT M01/M01 A3032 RMK A01 T10071014  RH  095%=      5-min Rain = 0
KLA1 200957Z 01001KT M00/M01 A3032 RMK A01 T10041011  RH  095%=      5-min Rain = 0
KLA1 200958Z 01000KT M00/M01 A3032 RMK A01 T10021009  RH  095%=      5-min Rain = 0
KLA1 200959Z 00000KT M00/M01 A3032 RMK A01 T10011009  RH  095%=      5-min Rain = 0
KLA1 201000Z 00000KT M00/M01 A3032 RMK A01 T10011009  RH  094%=      5-min Rain = 0
KLA1 201001Z 00000KT M00/M01 A3032 RMK A01 T10011010  RH  094%=      5-min Rain = 0
KLA1 201002Z 00000KT 00/01 A3032 RMK A01 T00-000-9  RH  094%=      5-min Rain = 0
KLA1 201003Z 00000KT 00/M01 A3032 RMK A01 T00011009  RH  093%=      5-min Rain = 0
KLA1 201004Z 00000KT 00/M01 A3032 RMK A01 T00011010  RH  093%=      5-min Rain = 0
KLA1 201005Z 00000KT 00/M01 A3032 RMK A01 T00011011  RH  092%=      5-min Rain = 0
KLA1 201006Z 00000KT M00/M01 A3032 RMK A01 T10011013  RH  091%=      5-min Rain = 0
KLA1 201007Z 03000KT M00/M02 A3032 RMK A01 T10021015  RH  091%=      5-min Rain = 0
KLA1 201008Z 03001KT M00/M02 A3032 RMK A01 T10031016  RH  092%=      5-min Rain = 0
KLA1 201009Z 03001KT M00/M02 A3032 RMK A01 T10041016  RH  092%=      5-min Rain = 0
KLA1 201010Z 04000KT M01/M02 A3032 RMK A01 T10051016  RH  092%=      5-min Rain = 0
KLA1 201011Z 05000KT M01/M02 A3032 RMK A01 T10051016  RH  092%=      5-min Rain = 0
KLA1 201012Z 03001KT M01/M02 A3032 RMK A01 T10051016  RH  093%=      5-min Rain = 0
KLA1 201013Z 04000KT M01/M02 A3032 RMK A01 T10051015  RH  093%=      5-min Rain = 0
KLA1 201014Z 05000KT M01/M01 A3032 RMK A01 T10051014  RH  093%=      5-min Rain = 0
KLA1 201015Z 00000KT M00/M01 A3032 RMK A01 T10041013  RH  094%=      5-min Rain = 0
KLA1 201016Z 05000KT M00/M01 A3032 RMK A01 T10021011  RH  094%=      5-min Rain = 0
KLA1 201017Z 00000KT M00/M01 A3032 RMK A01 T10021011  RH  094%=      5-min Rain = 0
KLA1 201018Z 00000KT M00/M01 A3032 RMK A01 T10021011  RH  093%=      5-min Rain = 0
KLA1 201019Z 00000KT M00/M01 A3032 RMK A01 T10011011  RH  093%=      5-min Rain = 0
KLA1 201020Z 00000KT 00/01 A3032 RMK A01 T00-00-11  RH  093%=      5-min Rain = 0
KLA1 201021Z 00000KT 00/01 A3032 RMK A01 T00-00-11  RH  093%=      5-min Rain = 0
KLA1 201022Z 00000KT 00/01 A3032 RMK A01 T00-00-12  RH  092%=      5-min Rain = 0
KLA1 201023Z 00000KT M00/M01 A3032 RMK A01 T10021014  RH  092%=      5-min Rain = 0
KLA1 201024Z 00000KT M00/M02 A3032 RMK A01 T10031015  RH  091%=      5-min Rain = 0
KLA1 201025Z 00000KT M00/M02 A3032 RMK A01 T10041016  RH  092%=      5-min Rain = 0
KLA1 201026Z 00000KT M00/M02 A3032 RMK A01 T10041015  RH  092%=      5-min Rain = 0
KLA1 201027Z 00000KT M00/M02 A3032 RMK A01 T10041015  RH  093%=      5-min Rain = 0
KLA1 201028Z 00000KT M01/M02 A3032 RMK A01 T10051015  RH  093%=      5-min Rain = 0
KLA1 201029Z 00000KT M01/M02 A3032 RMK A01 T10051015  RH  093%=      5-min Rain = 0
KLA1 201030Z 00000KT M01/M01 A3032 RMK A01 T10051014  RH  093%=      5-min Rain = 0
KLA1 201031Z 00000KT M01/M01 A3032 RMK A01 T10051014  RH  094%=      5-min Rain = 0
KLA1 201032Z 00000KT M01/M01 A3032 RMK A01 T10051014  RH  094%=      5-min Rain = 0
KLA1 201033Z 00000KT M01/M01 A3032 RMK A01 T10051014  RH  094%=      5-min Rain = 0
KLA1 201034Z 00000KT M01/M02 A3032 RMK A01 T10051015  RH  094%=      5-min Rain = 0
KLA1 201035Z 00000KT M01/M02 A3032 RMK A01 T10061015  RH  094%=      5-min Rain = 0
KLA1 201036Z 00000KT M01/M02 A3032 RMK A01 T10061015  RH  093%=      5-min Rain = 0
KLA1 201037Z 00000KT M01/M02 A3032 RMK A01 T10071016  RH  093%=      5-min Rain = 0
KLA1 201038Z 00000KT M01/M02 A3032 RMK A01 T10071016  RH  093%=      5-min Rain = 0
KLA1 201039Z 00000KT M01/M02 A3032 RMK A01 T10071015  RH  094%=      5-min Rain = 0
KLA1 201040Z 00000KT M01/M02 A3032 RMK A01 T10061015  RH  094%=      5-min Rain = 0
KLA1 201041Z 00000KT M01/M02 A3032 RMK A01 T10071015  RH  094%=      5-min Rain = 0
KLA1 201042Z 00000KT M01/M02 A3032 RMK A01 T10071015  RH  094%=      5-min Rain = 0
KLA1 201043Z 00000KT M01/M02 A3032 RMK A01 T10071016  RH  094%=      5-min Rain = 0
KLA1 201044Z 00000KT M01/M02 A3032 RMK A01 T10081017  RH  094%=      5-min Rain = 0
KLA1 201045Z 00000KT M01/M02 A3032 RMK A01 T10081017  RH  094%=      5-min Rain = 0
KLA1 201046Z 00000KT M01/M02 A3032 RMK A01 T10081016  RH  094%=      5-min Rain = 0
KLA1 201047Z 00000KT M01/M02 A3032 RMK A01 T10091017  RH  094%=      5-min Rain = 0
KLA1 201048Z 00000KT M01/M02 A3032 RMK A01 T10091018  RH  094%=      5-min Rain = 0
KLA1 201049Z 00000KT M01/M02 A3032 RMK A01 T10101018  RH  095%=      5-min Rain = 0
KLA1 201050Z 00000KT M01/M02 A3032 RMK A01 T10091016  RH  095%=      5-min Rain = 0
KLA1 201051Z 00000KT M01/M01 A3032 RMK A01 T10081014  RH  095%=      5-min Rain = 0
KLA1 201052Z 00000KT M01/M01 A3032 RMK A01 T10071013  RH  096%=      5-min Rain = 0
KLA1 201053Z 00000KT M01/M01 A3032 RMK A01 T10061011  RH  096%=      5-min Rain = 0
KLA1 201054Z 00000KT M01/M01 A3032 RMK A01 T10051011  RH  096%=      5-min Rain = 0
KLA1 201055Z 00000KT M01/M01 A3032 RMK A01 T10051011  RH  095%=      5-min Rain = 0
KLA1 201056Z 00000KT M01/M01 A3032 RMK A01 T10051012  RH  095%=      5-min Rain = 0
KLA1 201057Z 00000KT M01/M01 A3032 RMK A01 T10051012  RH  095%=      5-min Rain = 0
KLA1 201058Z 00000KT M01/M01 A3032 RMK A01 T10051013  RH  094%=      5-min Rain = 0
KLA1 201059Z 00000KT M01/M01 A3032 RMK A01 T10051013  RH  094%=      5-min Rain = 0
KLA1 201100Z 00000KT M01/M01 A3032 RMK A01 T10051013  RH  094%=      5-min Rain = 0
KLA1 201101Z 31000KT M01/M01 A3032 RMK A01 T10051013  RH  094%=      5-min Rain = 0
KLA1 201102Z 31000KT M01/M02 A3032 RMK A01 T10061015  RH  094%=      5-min Rain = 0
KLA1 201103Z 00000KT M01/M02 A3032 RMK A01 T10081017  RH  093%=      5-min Rain = 0
KLA1 201104Z 00000KT M01/M02 A3032 RMK A01 T10101020  RH  093%=      5-min Rain = 0
KLA1 201105Z 00000KT M01/M02 A3032 RMK A01 T10111022  RH  093%=      5-min Rain = 0
KLA1 201106Z 00000KT M01/M02 A3032 RMK A01 T10131023  RH  093%=      5-min Rain = 0
KLA1 201107Z 00000KT M01/M02 A3032 RMK A01 T10131023  RH  093%=      5-min Rain = 0
KLA1 201108Z 00000KT M01/M02 A3032 RMK A01 T10141023  RH  094%=      5-min Rain = 0
KLA1 201109Z 01001KT M01/M02 A3032 RMK A01 T10141022  RH  094%=      5-min Rain = 0
KLA1 201110Z 01000KT M01/M02 A3032 RMK A01 T10141022  RH  095%=      5-min Rain = 0
KLA1 201111Z 00000KT M01/M02 A3032 RMK A01 T10131020  RH  095%=      5-min Rain = 0
KLA1 201112Z 01000KT M01/M02 A3032 RMK A01 T10131020  RH  095%=      5-min Rain = 0
KLA1 201113Z 01000KT M01/M02 A3032 RMK A01 T10131019  RH  096%=      5-min Rain = 0
KLA1 201114Z 01000KT M01/M02 A3032 RMK A01 T10131019  RH  096%=      5-min Rain = 0
KLA1 201115Z 00000KT M01/M02 A3031 RMK A01 T10131019  RH  096%=      5-min Rain = 0
KLA1 201116Z 00000KT M01/M02 A3031 RMK A01 T10131018  RH  096%=      5-min Rain = 0
KLA1 201117Z 00000KT M01/M02 A3031 RMK A01 T10131018  RH  096%=      5-min Rain = 0
KLA1 201118Z 00000KT M01/M02 A3031 RMK A01 T10131018  RH  096%=      5-min Rain = 0
KLA1 201119Z 00000KT M01/M02 A3032 RMK A01 T10131018  RH  097%=      5-min Rain = 0
KLA1 201120Z 00000KT M01/M02 A3032 RMK A01 T10131017  RH  097%=      5-min Rain = 0
KLA1 201121Z 00000KT M01/M02 A3032 RMK A01 T10131017  RH  097%=      5-min Rain = 0
KLA1 201122Z 00000KT M01/M02 A3032 RMK A01 T10131017  RH  097%=      5-min Rain = 0
KLA1 201123Z 00000KT M01/M02 A3032 RMK A01 T10131017  RH  097%=      5-min Rain = 0
KLA1 201124Z 00000KT M01/M02 A3032 RMK A01 T10131018  RH  097%=      5-min Rain = 0
KLA1 201125Z 16000KT M02/M02 A3032 RMK A01 T10151019  RH  097%=      5-min Rain = 0
KLA1 201126Z 16000KT M02/M02 A3031 RMK A01 T10151019  RH  097%=      5-min Rain = 0
KLA1 201127Z 15000KT M01/M02 A3031 RMK A01 T10141019  RH  097%=      5-min Rain = 0
KLA1 201128Z 15001KT M01/M02 A3031 RMK A01 T10141018  RH  097%=      5-min Rain = 0
KLA1 201129Z 15001KT M01/M02 A3031 RMK A01 T10131017  RH  098%=      5-min Rain = 0
KLA1 201130Z 15001KT M01/M02 A3031 RMK A01 T10131016  RH  097%=      5-min Rain = 0
KLA1 201131Z 15001KT M01/M02 A3031 RMK A01 T10121016  RH  097%=      5-min Rain = 0
KLA1 201132Z 15000KT M01/M02 A3031 RMK A01 T10131016  RH  097%=      5-min Rain = 0
KLA1 201133Z 00000KT M01/M02 A3031 RMK A01 T10121016  RH  097%=      5-min Rain = 0
KLA1 201134Z 00000KT M01/M02 A3031 RMK A01 T10121015  RH  098%=      5-min Rain = 0
KLA1 201135Z 00000KT M01/M01 A3031 RMK A01 T10101013  RH  098%=      5-min Rain = 0
KLA1 201136Z 00000KT M01/M01 A3031 RMK A01 T10091011  RH  098%=      5-min Rain = 0
KLA1 201137Z 00000KT M01/M01 A3031 RMK A01 T10081011  RH  098%=      5-min Rain = 0
KLA1 201138Z 15000KT M01/M01 A3031 RMK A01 T10081011  RH  098%=      5-min Rain = 0
KLA1 201139Z 17001KT M01/M01 A3031 RMK A01 T10071010  RH  098%=      5-min Rain = 0
KLA1 201140Z 17001KT M01/M01 A3031 RMK A01 T10071010  RH  098%=      5-min Rain = 0
KLA1 201141Z 17001KT M01/M01 A3031 RMK A01 T10061009  RH  098%=      5-min Rain = 0
KLA1 201142Z 00000KT M01/M01 A3031 RMK A01 T10061010  RH  097%=      5-min Rain = 0
KLA1 201143Z 17000KT M01/M01 A3031 RMK A01 T10061010  RH  097%=      5-min Rain = 0
KLA1 201144Z 20000KT M01/M01 A3031 RMK A01 T10061010  RH  097%=      5-min Rain = 0
KLA1 201145Z 21001KT M01/M01 A3031 RMK A01 T10051009  RH  097%=      5-min Rain = 0
KLA1 201146Z 21001KT M00/M01 A3031 RMK A01 T10041009  RH  097%=      5-min Rain = 0
KLA1 201147Z 21001KT M00/M01 A3031 RMK A01 T10031008  RH  096%=      5-min Rain = 0
KLA1 201148Z 00000KT M00/M01 A3031 RMK A01 T10031009  RH  096%=      5-min Rain = 0
KLA1 201149Z 00000KT M00/M01 A3031 RMK A01 T10031009  RH  096%=      5-min Rain = 0
KLA1 201150Z 00000KT M00/M01 A3031 RMK A01 T10031009  RH  095%=      5-min Rain = 0
KLA1 201151Z 00000KT M00/M01 A3031 RMK A01 T10041011  RH  095%=      5-min Rain = 0
KLA1 201152Z 00000KT M01/M01 A3031 RMK A01 T10051014  RH  094%=      5-min Rain = 0
KLA1 201153Z 00000KT M01/M02 A3031 RMK A01 T10071016  RH  094%=      5-min Rain = 0
KLA1 201154Z 00000KT M01/M02 A3031 RMK A01 T10081017  RH  094%=      5-min Rain = 0
KLA1 201155Z 00000KT M01/M02 A3031 RMK A01 T10091018  RH  094%=      5-min Rain = 0
KLA1 201156Z 23001KT M01/M02 A3031 RMK A01 T10091018  RH  094%=      5-min Rain = 0
KLA1 201157Z 23001KT M01/M02 A3031 RMK A01 T10101018  RH  094%=      5-min Rain = 0
KLA1 201158Z 23000KT M01/M02 A3031 RMK A01 T10101018  RH  094%=      5-min Rain = 0
KLA1 201159Z 23000KT M01/M02 A3031 RMK A01 T10091017  RH  094%=      5-min Rain = 0
KLA1 201200Z 00000KT M01/M02 A3031 RMK A01 T10091016  RH  095%=      5-min Rain = 0
KLA1 201201Z 00000KT M01/M02 A3031 RMK A01 T10081015  RH  095%=      5-min Rain = 0
KLA1 201202Z 00000KT M01/M02 A3031 RMK A01 T10081015  RH  095%=      5-min Rain = 0
KLA1 201203Z 00000KT M01/M02 A3031 RMK A01 T10091016  RH  095%=      5-min Rain = 0
KLA1 201204Z 00000KT M01/M02 A3031 RMK A01 T10101018  RH  094%=      5-min Rain = 0
KLA1 201205Z 00000KT M01/M02 A3031 RMK A01 T10101019  RH  094%=      5-min Rain = 0
KLA1 201206Z 00000KT M01/M02 A3031 RMK A01 T10111019  RH  094%=      5-min Rain = 0
KLA1 201207Z 00000KT M01/M02 A3031 RMK A01 T10111019  RH  094%=      5-min Rain = 0
KLA1 201208Z 00000KT M01/M02 A3031 RMK A01 T10111019  RH  094%=      5-min Rain = 0
KLA1 201209Z 00000KT M01/M02 A3031 RMK A01 T10121019  RH  095%=      5-min Rain = 0
KLA1 201210Z 00000KT M01/M02 A3031 RMK A01 T10111019  RH  095%=      5-min Rain = 0
KLA1 201211Z 00000KT M01/M02 A3031 RMK A01 T10111018  RH  095%=      5-min Rain = 0
KLA1 201212Z 00000KT M01/M02 A3031 RMK A01 T10101017  RH  095%=      5-min Rain = 0
KLA1 201213Z 00000KT M01/M02 A3031 RMK A01 T10101017  RH  095%=      5-min Rain = 0
KLA1 201214Z 00000KT M01/M02 A3031 RMK A01 T10091016  RH  095%=      5-min Rain = 0
KLA1 201215Z 00000KT M01/M02 A3031 RMK A01 T10091016  RH  095%=      5-min Rain = 0
KLA1 201216Z 00000KT M01/M02 A3031 RMK A01 T10081015  RH  095%=      5-min Rain = 0
KLA1 201217Z 00000KT M01/M01 A3031 RMK A01 T10071014  RH  095%=      5-min Rain = 0
KLA1 201218Z 00000KT M01/M02 A3031 RMK A01 T10071015  RH  094%=      5-min Rain = 0
KLA1 201219Z 00000KT M01/M02 A3032 RMK A01 T10071016  RH  094%=      5-min Rain = 0
KLA1 201220Z 22000KT M01/M02 A3032 RMK A01 T10081017  RH  094%=      5-min Rain = 0
KLA1 201221Z 22000KT M01/M02 A3032 RMK A01 T10071017  RH  093%=      5-min Rain = 0
KLA1 201222Z 00000KT M01/M02 A3032 RMK A01 T10081018  RH  093%=      5-min Rain = 0
KLA1 201223Z 17001KT M01/M02 A3032 RMK A01 T10091019  RH  093%=      5-min Rain = 0
KLA1 201224Z 17001KT M01/M02 A3032 RMK A01 T10071016  RH  094%=      5-min Rain = 0
KLA1 201225Z 17001KT M01/M02 A3032 RMK A01 T10061015  RH  094%=      5-min Rain = 0
KLA1 201226Z 17001KT M01/M02 A3032 RMK A01 T10061015  RH  093%=      5-min Rain = 0
KLA1 201227Z 17001KT M01/M02 A3032 RMK A01 T10061016  RH  093%=      5-min Rain = 0
KLA1 201228Z 17001KT M00/M01 A3032 RMK A01 T10041014  RH  093%=      5-min Rain = 0
KLA1 201229Z 16001KT M00/M01 A3032 RMK A01 T10021012  RH  093%=      5-min Rain = 0
KLA1 201230Z 13001KT 00/01 A3032 RMK A01 T00-00-11  RH  092%=      5-min Rain = 0
KLA1 201231Z 14001KT 00/M01 A3032 RMK A01 T00021010  RH  092%=      5-min Rain = 0
KLA1 201232Z 13001KT 00/M01 A3032 RMK A01 T00031010  RH  091%=      5-min Rain = 0
KLA1 201233Z 12001KT 00/M01 A3032 RMK A01 T00041011  RH  090%=      5-min Rain = 0
KLA1 201234Z 12001KT 01/M01 A3032 RMK A01 T00051011  RH  089%=      5-min Rain = 0
KLA1 201235Z 12001KT 01/M01 A3032 RMK A01 T00051012  RH  088%=      5-min Rain = 0
KLA1 201236Z 13001KT 01/M01 A3032 RMK A01 T00051013  RH  088%=      5-min Rain = 0
KLA1 201237Z 13000KT 01/M01 A3032 RMK A01 T00051014  RH  087%=      5-min Rain = 0
KLA1 201238Z 12001KT 00/M02 A3032 RMK A01 T00011019  RH  086%=      5-min Rain = 0
KLA1 201239Z 14001KT M00/M02 A3032 RMK A01 T10031023  RH  086%=      5-min Rain = 0
KLA1 201240Z 14002KT M01/M03 A3032 RMK A01 T10051025  RH  087%=      5-min Rain = 0
KLA1 201241Z 15001KT M01/M03 A3032 RMK A01 T10071025  RH  087%=      5-min Rain = 0
KLA1 201242Z 16001KT M01/M03 A3032 RMK A01 T10081025  RH  088%=      5-min Rain = 0
KLA1 201243Z 17001KT M01/M03 A3032 RMK A01 T10091026  RH  089%=      5-min Rain = 0
KLA1 201244Z 15002KT M01/M03 A3032 RMK A01 T10101025  RH  090%=      5-min Rain = 0
KLA1 201245Z 13002KT M01/M02 A3033 RMK A01 T10101023  RH  091%=      5-min Rain = 0
KLA1 201246Z 14002KT M01/M02 A3033 RMK A01 T10091021  RH  092%=      5-min Rain = 0
KLA1 201247Z 14002KT M01/M02 A3033 RMK A01 T10081019  RH  092%=      5-min Rain = 0
KLA1 201248Z 13002KT M01/M02 A3033 RMK A01 T10081019  RH  092%=      5-min Rain = 0
KLA1 201249Z 13001KT M01/M02 A3033 RMK A01 T10081019  RH  092%=      5-min Rain = 0
KLA1 201250Z 12002KT M01/M02 A3033 RMK A01 T10071018  RH  092%=      5-min Rain = 0
KLA1 201251Z 11002KT M01/M02 A3033 RMK A01 T10071017  RH  093%=      5-min Rain = 0
KLA1 201252Z 12002KT M01/M02 A3033 RMK A01 T10061016  RH  092%=      5-min Rain = 0
KLA1 201253Z 12003KT M01/M02 A3033 RMK A01 T10051016  RH  092%=      5-min Rain = 0
KLA1 201254Z 12002KT M00/M02 A3033 RMK A01 T10041016  RH  092%=      5-min Rain = 0
KLA1 201255Z 12003KT M00/M02 A3033 RMK A01 T10041016  RH  091%=      5-min Rain = 0
KLA1 201256Z 13003KT M00/M02 A3033 RMK A01 T10041016  RH  091%=      5-min Rain = 0
KLA1 201257Z 13002KT M00/M02 A3033 RMK A01 T10031017  RH  091%=      5-min Rain = 0
KLA1 201258Z 13002KT M00/M02 A3033 RMK A01 T10031017  RH  090%=      5-min Rain = 0
KLA1 201259Z 13002KT M00/M02 A3033 RMK A01 T10041019  RH  090%=      5-min Rain = 0
KLA1 201300Z 14002KT M01/M02 A3033 RMK A01 T10051020  RH  090%=      5-min Rain = 0
KLA1 201301Z 14002KT M01/M02 A3034 RMK A01 T10051019  RH  090%=      5-min Rain = 0
KLA1 201302Z 14002KT M01/M02 A3034 RMK A01 T10061019  RH  091%=      5-min Rain = 0
KLA1 201303Z 13002KT M01/M02 A3034 RMK A01 T10051018  RH  091%=      5-min Rain = 0
KLA1 201304Z 14003KT M00/M02 A3034 RMK A01 T10041017  RH  091%=      5-min Rain = 0
KLA1 201305Z 13003KT M00/M02 A3034 RMK A01 T10041017  RH  091%=      5-min Rain = 0
KLA1 201306Z 14002KT M00/M02 A3034 RMK A01 T10031017  RH  090%=      5-min Rain = 0
KLA1 201307Z 13003KT M00/M02 A3034 RMK A01 T10021017  RH  090%=      5-min Rain = 0
KLA1 201308Z 14003KT M00/M02 A3034 RMK A01 T10011016  RH  090%=      5-min Rain = 0
KLA1 201309Z 14003KT 00/02 A3034 RMK A01 T00000-16  RH  089%=      5-min Rain = 0
KLA1 201310Z 13003KT 00/M02 A3034 RMK A01 T00011016  RH  088%=      5-min Rain = 0
KLA1 201311Z 13003KT 00/M02 A3034 RMK A01 T00021017  RH  087%=      5-min Rain = 0
KLA1 201312Z 13003KT 00/M02 A3034 RMK A01 T00021018  RH  087%=      5-min Rain = 0
KLA1 201313Z 13003KT 00/M02 A3034 RMK A01 T00021018  RH  086%=      5-min Rain = 0
KLA1 201314Z 14002KT 00/M02 A3034 RMK A01 T00021018  RH  086%=      5-min Rain = 0
KLA1 201315Z 14002KT 00/M02 A3034 RMK A01 T00021019  RH  086%=      5-min Rain = 0
KLA1 201316Z 14002KT 00/M02 A3034 RMK A01 T00021019  RH  086%=      5-min Rain = 0
KLA1 201317Z 14003KT 00/M02 A3034 RMK A01 T00021020  RH  085%=      5-min Rain = 0
KLA1 201318Z 14003KT 00/M02 A3034 RMK A01 T00011021  RH  085%=      5-min Rain = 0
KLA1 201319Z 13002KT 00/02 A3034 RMK A01 T00000-21  RH  085%=      5-min Rain = 0
KLA1 201320Z 12003KT 00/02 A3034 RMK A01 T00-00-21  RH  086%=      5-min Rain = 0
KLA1 201321Z 12003KT M00/M02 A3034 RMK A01 T10011021  RH  086%=      5-min Rain = 0
KLA1 201322Z 13003KT M00/M02 A3034 RMK A01 T10011021  RH  086%=      5-min Rain = 0
KLA1 201323Z 13003KT M00/M02 A3034 RMK A01 T10011021  RH  086%=      5-min Rain = 0
KLA1 201324Z 13004KT M00/M02 A3034 RMK A01 T10011021  RH  086%=      5-min Rain = 0
KLA1 201325Z 12004KT M00/M02 A3034 RMK A01 T10011021  RH  086%=      5-min Rain = 0
KLA1 201326Z 11004KT M00/M02 A3034 RMK A01 T10011021  RH  086%=      5-min Rain = 0
KLA1 201327Z 11004KT 00/02 A3033 RMK A01 T00000-20  RH  086%=      5-min Rain = 0
KLA1 201328Z 11004KT 00/M02 A3033 RMK A01 T00011020  RH  086%=      5-min Rain = 0
KLA1 201329Z 11003KT 00/M02 A3033 RMK A01 T00031020  RH  085%=      5-min Rain = 0
KLA1 201330Z 12003KT 00/M02 A3033 RMK A01 T00041020  RH  084%=      5-min Rain = 0
KLA1 201331Z 12002KT 01/M02 A3033 RMK A01 T00051020  RH  083%=      5-min Rain = 0
KLA1 201332Z 12003KT 01/M02 A3033 RMK A01 T00051021  RH  083%=      5-min Rain = 0
KLA1 201333Z 12003KT 01/M02 A3033 RMK A01 T00061021  RH  082%=      5-min Rain = 0
KLA1 201334Z 12003KT 01/M02 A3033 RMK A01 T00061021  RH  082%=      5-min Rain = 0
KLA1 201335Z 12003KT 01/M02 A3033 RMK A01 T00061022  RH  081%=      5-min Rain = 0
KLA1 201336Z 11003KT 01/M02 A3033 RMK A01 T00061023  RH  081%=      5-min Rain = 0
KLA1 201337Z 11003KT 01/M02 A3033 RMK A01 T00061022  RH  081%=      5-min Rain = 0
KLA1 201338Z 11003KT 01/M02 A3033 RMK A01 T00051022  RH  082%=      5-min Rain = 0
KLA1 201339Z 12003KT 01/M02 A3033 RMK A01 T00051023  RH  082%=      5-min Rain = 0
KLA1 201340Z 11004KT 01/M02 A3033 RMK A01 T00051022  RH  082%=      5-min Rain = 0
KLA1 201341Z 11004KT 01/M02 A3033 RMK A01 T00051022  RH  082%=      5-min Rain = 0
KLA1 201342Z 11003KT 01/M02 A3033 RMK A01 T00051022  RH  082%=      5-min Rain = 0
KLA1 201343Z 11004KT 01/M02 A3033 RMK A01 T00061022  RH  082%=      5-min Rain = 0
KLA1 201344Z 11004KT 01/M02 A3033 RMK A01 T00061023  RH  081%=      5-min Rain = 0
KLA1 201345Z 11004KT 01/M02 A3033 RMK A01 T00061023  RH  081%=      5-min Rain = 0
KLA1 201346Z 11005KT 01/M02 A3033 RMK A01 T00061022  RH  081%=      5-min Rain = 0
KLA1 201347Z 11004KT 01/M02 A3033 RMK A01 T00071022  RH  081%=      5-min Rain = 0
KLA1 201348Z 11004KT 01/M02 A3033 RMK A01 T00071021  RH  081%=      5-min Rain = 0
KLA1 201349Z 11004KT 01/M02 A3033 RMK A01 T00081021  RH  081%=      5-min Rain = 0
KLA1 201350Z 11004KT 01/M02 A3033 RMK A01 T00091020  RH  081%=      5-min Rain = 0
KLA1 201351Z 11004KT 01/M02 A3033 RMK A01 T00101020  RH  080%=      5-min Rain = 0
KLA1 201352Z 11004KT 01/M02 A3033 RMK A01 T00101020  RH  080%=      5-min Rain = 0
KLA1 201353Z 11004KT 01/M02 A3033 RMK A01 T00101020  RH  080%=      5-min Rain = 0
KLA1 201354Z 11005KT 01/M02 A3033 RMK A01 T00101020  RH  080%=      5-min Rain = 0
KLA1 201355Z 12004KT 01/M02 A3033 RMK A01 T00101020  RH  081%=      5-min Rain = 0
KLA1 201356Z 12004KT 01/M02 A3033 RMK A01 T00091020  RH  081%=      5-min Rain = 0
KLA1 201357Z 12005KT 01/M02 A3033 RMK A01 T00101020  RH  081%=      5-min Rain = 0
KLA1 201358Z 12004KT 01/M02 A3033 RMK A01 T00101019  RH  081%=      5-min Rain = 0
KLA1 201359Z 12005KT 01/M02 A3033 RMK A01 T00101019  RH  081%=      5-min Rain = 0
KLA1 201400Z 12005KT 01/M02 A3033 RMK A01 T00101019  RH  081%=      5-min Rain = 0
KLA1 201401Z 11005KT 01/M02 A3033 RMK A01 T00111018  RH  081%=      5-min Rain = 0
KLA1 201402Z 11005KT 01/M02 A3033 RMK A01 T00121018  RH  081%=      5-min Rain = 0
KLA1 201403Z 12005KT 01/M02 A3033 RMK A01 T00121018  RH  080%=      5-min Rain = 0
KLA1 201404Z 12005KT 01/M02 A3033 RMK A01 T00131018  RH  080%=      5-min Rain = 0
KLA1 201405Z 12006KT 01/M02 A3033 RMK A01 T00131018  RH  080%=      5-min Rain = 0
KLA1 201406Z 11005KT 01/M02 A3033 RMK A01 T00141018  RH  079%=      5-min Rain = 0
KLA1 201407Z 11006KT 01/M02 A3033 RMK A01 T00141018  RH  079%=      5-min Rain = 0
KLA1 201408Z 12005KT 02/M02 A3033 RMK A01 T00151018  RH  079%=      5-min Rain = 0
KLA1 201409Z 11006KT 02/M02 A3033 RMK A01 T00161018  RH  079%=      5-min Rain = 0
KLA1 201410Z 12005KT 02/M02 A3033 RMK A01 T00171017  RH  078%=      5-min Rain = 0
KLA1 201411Z 12005KT 02/M02 A3033 RMK A01 T00171017  RH  078%=      5-min Rain = 0
KLA1 201412Z 12005KT 02/M02 A3033 RMK A01 T00181017  RH  078%=      5-min Rain = 0
KLA1 201413Z 12005KT 02/M02 A3033 RMK A01 T00181017  RH  077%=      5-min Rain = 0
KLA1 201414Z 11005KT 02/M02 A3033 RMK A01 T00191017  RH  077%=      5-min Rain = 0
KLA1 201415Z 11005KT 02/M02 A3033 RMK A01 T00191017  RH  077%=      5-min Rain = 0
KLA1 201416Z 11005KT 02/M02 A3033 RMK A01 T00191016  RH  077%=      5-min Rain = 0
KLA1 201417Z 12004KT 02/M02 A3033 RMK A01 T00201015  RH  077%=      5-min Rain = 0
KLA1 201418Z 12005KT 02/M02 A3033 RMK A01 T00211015  RH  077%=      5-min Rain = 0
KLA1 201419Z 12004KT 02/M01 A3033 RMK A01 T00211014  RH  077%=      5-min Rain = 0
KLA1 201420Z 13005KT 02/M01 A3033 RMK A01 T00221014  RH  077%=      5-min Rain = 0
KLA1 201421Z 12005KT 02/M01 A3033 RMK A01 T00221014  RH  077%=      5-min Rain = 0
KLA1 201422Z 12004KT 02/M01 A3033 RMK A01 T00221014  RH  077%=      5-min Rain = 0
KLA1 201423Z 12005KT 02/M01 A3033 RMK A01 T00231014  RH  077%=      5-min Rain = 0
KLA1 201424Z 12004KT 02/M01 A3033 RMK A01 T00231014  RH  077%=      5-min Rain = 0
KLA1 201425Z 12004KT 02/M01 A3033 RMK A01 T00231014  RH  077%=      5-min Rain = 0
KLA1 201426Z 12005KT 02/M01 A3033 RMK A01 T00231014  RH  076%=      5-min Rain = 0
KLA1 201427Z 11005KT 02/M01 A3033 RMK A01 T00241014  RH  076%=      5-min Rain = 0
KLA1 201428Z 11005KT 02/M01 A3033 RMK A01 T00241014  RH  076%=      5-min Rain = 0
KLA1 201429Z 11004KT 03/M01 A3033 RMK A01 T00251014  RH  075%=      5-min Rain = 0
KLA1 201430Z 11004KT 03/M01 A3033 RMK A01 T00261014  RH  075%=      5-min Rain = 0
KLA1 201431Z 11004KT 03/M01 A3033 RMK A01 T00271014  RH  074%=      5-min Rain = 0
KLA1 201432Z 11005KT 03/M01 A3033 RMK A01 T00281014  RH  073%=      5-min Rain = 0
KLA1 201433Z 11004KT 03/M02 A3033 RMK A01 T00291015  RH  073%=      5-min Rain = 0
KLA1 201434Z 11004KT 03/M02 A3033 RMK A01 T00301015  RH  072%=      5-min Rain = 0
KLA1 201435Z 11004KT 03/M02 A3033 RMK A01 T00311016  RH  071%=      5-min Rain = 0
KLA1 201436Z 11004KT 03/M02 A3033 RMK A01 T00311017  RH  071%=      5-min Rain = 0
KLA1 201437Z 10004KT 03/M02 A3033 RMK A01 T00321016  RH  071%=      5-min Rain = 0
KLA1 201438Z 11004KT 03/M02 A3033 RMK A01 T00321017  RH  070%=      5-min Rain = 0
KLA1 201439Z 12003KT 03/M02 A3033 RMK A01 T00331017  RH  070%=      5-min Rain = 0
KLA1 201440Z 12004KT 03/M02 A3033 RMK A01 T00331016  RH  070%=      5-min Rain = 0
KLA1 201441Z 11005KT 03/M02 A3033 RMK A01 T00331016  RH  070%=      5-min Rain = 0
KLA1 201442Z 11004KT 03/M02 A3034 RMK A01 T00341018  RH  069%=      5-min Rain = 0
KLA1 201443Z 11004KT 03/M02 A3034 RMK A01 T00341018  RH  069%=      5-min Rain = 0
KLA1 201444Z 11004KT 03/M02 A3034 RMK A01 T00341018  RH  068%=      5-min Rain = 0
KLA1 201445Z 12004KT 04/M02 A3034 RMK A01 T00351018  RH  068%=      5-min Rain = 0
KLA1 201446Z 11004KT 04/M02 A3034 RMK A01 T00351017  RH  069%=      5-min Rain = 0
KLA1 201447Z 11005KT 04/M02 A3034 RMK A01 T00361018  RH  068%=      5-min Rain = 0
KLA1 201448Z 11005KT 04/M02 A3034 RMK A01 T00361018  RH  068%=      5-min Rain = 0
KLA1 201449Z 11004KT 04/M02 A3034 RMK A01 T00371017  RH  068%=      5-min Rain = 0
KLA1 201450Z 11003KT 04/M02 A3034 RMK A01 T00371017  RH  068%=      5-min Rain = 0
KLA1 201451Z 11004KT 04/M02 A3034 RMK A01 T00371016  RH  068%=      5-min Rain = 0
KLA1 201452Z 11004KT 04/M02 A3034 RMK A01 T00381016  RH  068%=      5-min Rain = 0
KLA1 201453Z 11005KT 04/M02 A3033 RMK A01 T00371015  RH  068%=      5-min Rain = 0
KLA1 201454Z 12004KT 04/M02 A3033 RMK A01 T00381015  RH  068%=      5-min Rain = 0
KLA1 201455Z 12005KT 04/M01 A3033 RMK A01 T00381014  RH  069%=      5-min Rain = 0
KLA1 201456Z 11005KT 04/M02 A3033 RMK A01 T00381015  RH  068%=      5-min Rain = 0
KLA1 201457Z 11005KT 04/M02 A3033 RMK A01 T00381016  RH  068%=      5-min Rain = 0
KLA1 201458Z 11005KT 04/M02 A3033 RMK A01 T00391017  RH  067%=      5-min Rain = 0
KLA1 201459Z 12004KT 04/M02 A3033 RMK A01 T00391017  RH  067%=      5-min Rain = 0
KLA1 201500Z 12005KT 04/M02 A3034 RMK A01 T00401016  RH  067%=      5-min Rain = 0
KLA1 201501Z 12005KT 04/M02 A3034 RMK A01 T00401016  RH  067%=      5-min Rain = 0
KLA1 201502Z 11004KT 04/M02 A3034 RMK A01 T00401016  RH  067%=      5-min Rain = 0
KLA1 201503Z 11004KT 04/M02 A3034 RMK A01 T00411015  RH  067%=      5-min Rain = 0
KLA1 201504Z 12005KT 04/M02 A3034 RMK A01 T00421016  RH  066%=      5-min Rain = 0
KLA1 201505Z 11005KT 04/M02 A3034 RMK A01 T00421015  RH  066%=      5-min Rain = 0
KLA1 201506Z 12005KT 04/M01 A3034 RMK A01 T00441014  RH  066%=      5-min Rain = 0
KLA1 201507Z 12005KT 04/M02 A3034 RMK A01 T00441016  RH  065%=      5-min Rain = 0
KLA1 201508Z 11006KT 04/M02 A3034 RMK A01 T00441017  RH  065%=      5-min Rain = 0
KLA1 201509Z 12005KT 04/M02 A3034 RMK A01 T00441017  RH  064%=      5-min Rain = 0
KLA1 201510Z 11004KT 05/M02 A3034 RMK A01 T00451015  RH  065%=      5-min Rain = 0
KLA1 201511Z 12005KT 05/M02 A3034 RMK A01 T00461015  RH  065%=      5-min Rain = 0
KLA1 201512Z 11005KT 05/M02 A3034 RMK A01 T00471015  RH  064%=      5-min Rain = 0
KLA1 201513Z 12006KT 05/M02 A3034 RMK A01 T00481016  RH  063%=      5-min Rain = 0
KLA1 201514Z 11005KT 05/M02 A3034 RMK A01 T00491016  RH  063%=      5-min Rain = 0
KLA1 201515Z 12005KT 05/M01 A3034 RMK A01 T00501014  RH  063%=      5-min Rain = 0
KLA1 201516Z 10004KT 05/M01 A3034 RMK A01 T00511013  RH  063%=      5-min Rain = 0
KLA1 201517Z 12005KT 05/M01 A3034 RMK A01 T00521013  RH  063%=      5-min Rain = 0
KLA1 201518Z 12005KT 05/M01 A3034 RMK A01 T00531012  RH  063%=      5-min Rain = 0
KLA1 201519Z 12005KT 05/M01 A3034 RMK A01 T00541013  RH  062%=      5-min Rain = 0
KLA1 201520Z 11004KT 06/M01 A3034 RMK A01 T00561012  RH  062%=      5-min Rain = 0
KLA1 201521Z 11006KT 06/M01 A3034 RMK A01 T00571013  RH  061%=      5-min Rain = 0
KLA1 201522Z 11006KT 06/M02 A3034 RMK A01 T00571015  RH  060%=      5-min Rain = 0
KLA1 201523Z 12005KT 06/M01 A3034 RMK A01 T00571014  RH  060%=      5-min Rain = 0
KLA1 201524Z 12006KT 06/M01 A3034 RMK A01 T00581011  RH  061%=      5-min Rain = 0
KLA1 201525Z 11007KT 06/M01 A3034 RMK A01 T00581013  RH  060%=      5-min Rain = 0
KLA1 201526Z 12007KT 06/M02 A3034 RMK A01 T00581016  RH  059%=      5-min Rain = 0
KLA1 201527Z 11006KT 06/M02 A3034 RMK A01 T00581016  RH  059%=      5-min Rain = 0
KLA1 201528Z 12006KT 06/M01 A3034 RMK A01 T00581014  RH  060%=      5-min Rain = 0
KLA1 201529Z 11006KT 06/M01 A3034 RMK A01 T00591013  RH  060%=      5-min Rain = 0
KLA1 201530Z 11006KT 06/M01 A3034 RMK A01 T00601014  RH  059%=      5-min Rain = 0
KLA1 201531Z 10005KT 06/M01 A3034 RMK A01 T00611012  RH  059%=      5-min Rain = 0
KLA1 201532Z 11006KT 06/M01 A3034 RMK A01 T00621012  RH  059%=      5-min Rain = 0
KLA1 201533Z 11006KT 06/M01 A3034 RMK A01 T00631014  RH  058%=      5-min Rain = 0
KLA1 201534Z 11006KT 06/M01 A3034 RMK A01 T00631014  RH  058%=      5-min Rain = 0
KLA1 201535Z 12006KT 06/M01 A3034 RMK A01 T00631014  RH  058%=      5-min Rain = 0
KLA1 201536Z 11005KT 06/M01 A3034 RMK A01 T00631011  RH  059%=      5-min Rain = 0
KLA1 201537Z 11006KT 06/M01 A3034 RMK A01 T00641011  RH  058%=      5-min Rain = 0
KLA1 201538Z 11005KT 06/M01 A3034 RMK A01 T00641014  RH  057%=      5-min Rain = 0
KLA1 201539Z 12004KT 07/M01 A3035 RMK A01 T00651012  RH  058%=      5-min Rain = 0
KLA1 201540Z 12005KT 07/M01 A3035 RMK A01 T00661011  RH  058%=      5-min Rain = 0
KLA1 201541Z 11005KT 07/M01 A3035 RMK A01 T00671011  RH  058%=      5-min Rain = 0
KLA1 201542Z 11005KT 07/M01 A3035 RMK A01 T00681009  RH  058%=      5-min Rain = 0
KLA1 201543Z 12006KT 07/M01 A3035 RMK A01 T00691009  RH  058%=      5-min Rain = 0
KLA1 201544Z 12005KT 07/M01 A3035 RMK A01 T00691010  RH  057%=      5-min Rain = 0
KLA1 201545Z 12006KT 07/M01 A3035 RMK A01 T00701010  RH  057%=      5-min Rain = 0
KLA1 201546Z 13005KT 07/M01 A3035 RMK A01 T00701010  RH  057%=      5-min Rain = 0
KLA1 201547Z 11006KT 07/M01 A3035 RMK A01 T00711011  RH  056%=      5-min Rain = 0
KLA1 201548Z 12006KT 07/M01 A3035 RMK A01 T00711011  RH  056%=      5-min Rain = 0
KLA1 201549Z 12005KT 07/M01 A3035 RMK A01 T00711009  RH  056%=      5-min Rain = 0
KLA1 201550Z 12005KT 07/M01 A3035 RMK A01 T00731007  RH  057%=      5-min Rain = 0
KLA1 201551Z 12006KT 07/M01 A3035 RMK A01 T00731008  RH  056%=      5-min Rain = 0
KLA1 201552Z 12006KT 07/M01 A3035 RMK A01 T00731009  RH  056%=      5-min Rain = 0
KLA1 201553Z 12006KT 07/M01 A3035 RMK A01 T00741007  RH  056%=      5-min Rain = 0
KLA1 201554Z 11006KT 08/M01 A3035 RMK A01 T00751006  RH  056%=      5-min Rain = 0
KLA1 201555Z 13006KT 08/M01 A3035 RMK A01 T00761008  RH  055%=      5-min Rain = 0
KLA1 201556Z 14004KT 08/M00 A3035 RMK A01 T00781004  RH  056%=      5-min Rain = 0
KLA1 201557Z 13004KT 08/M01 A3035 RMK A01 T00801005  RH  055%=      5-min Rain = 0
KLA1 201558Z 12005KT 08/M00 A3035 RMK A01 T00821002  RH  055%=      5-min Rain = 0
KLA1 201559Z 12005KT 08/M01 A3035 RMK A01 T00821006  RH  054%=      5-min Rain = 0
KLA1 201600Z 13006KT 08/M01 A3035 RMK A01 T00821007  RH  054%=      5-min Rain = 0
KLA1 201601Z 13005KT 08/M01 A3035 RMK A01 T00821006  RH  054%=      5-min Rain = 0
KLA1 201602Z 13007KT 08/M01 A3035 RMK A01 T00821007  RH  053%=      5-min Rain = 0
KLA1 201603Z 14006KT 08/M01 A3035 RMK A01 T00821006  RH  054%=      5-min Rain = 0
KLA1 201604Z 14006KT 08/M00 A3035 RMK A01 T00841002  RH  055%=      5-min Rain = 0
KLA1 201605Z 14005KT 09/M01 A3035 RMK A01 T00851005  RH  053%=      5-min Rain = 0
KLA1 201606Z 13007KT 09/M00 A3035 RMK A01 T00861003  RH  054%=      5-min Rain = 0
KLA1 201607Z 13008KT 09/M01 A3035 RMK A01 T00861005  RH  053%=      5-min Rain = 0
KLA1 201608Z 13009KT 09/M01 A3035 RMK A01 T00861005  RH  053%=      5-min Rain = 0
KLA1 201609Z 15007KT 09/M01 A3035 RMK A01 T00861005  RH  053%=      5-min Rain = 0
KLA1 201610Z 14009KT 09/M00 A3035 RMK A01 T00861003  RH  053%=      5-min Rain = 0
KLA1 201611Z 14006KT 09/M01 A3035 RMK A01 T00871007  RH  052%=      5-min Rain = 0
KLA1 201612Z 14009G14KT 09/M01 A3035 RMK A01 T00871006  RH  052%=      5-min Rain = 0
KLA1 201613Z 15012KT 09/M01 A3035 RMK A01 T00871008  RH  051%=      5-min Rain = 0
KLA1 201614Z 14009G14KT 09/M01 A3035 RMK A01 T00871006  RH  052%=      5-min Rain = 0
KLA1 201615Z 14009KT 09/M00 A3035 RMK A01 T00881002  RH  054%=      5-min Rain = 0
KLA1 201616Z 14013G18KT 09/M01 A3035 RMK A01 T00881005  RH  052%=      5-min Rain = 0
KLA1 201617Z 14012KT 09/M01 A3035 RMK A01 T00891009  RH  050%=      5-min Rain = 0
KLA1 201618Z 15014KT 09/M01 A3035 RMK A01 T00891009  RH  050%=      5-min Rain = 0
KLA1 201619Z 15012KT 09/M01 A3035 RMK A01 T00881011  RH  050%=      5-min Rain = 0
KLA1 201620Z 16014KT 09/M01 A3035 RMK A01 T00881009  RH  051%=      5-min Rain = 0
KLA1 201621Z 14013KT 09/M01 A3035 RMK A01 T00871011  RH  050%=      5-min Rain = 0
KLA1 201622Z 15014KT 09/M01 A3035 RMK A01 T00871012  RH  050%=      5-min Rain = 0
KLA1 201623Z 15010G15KT 09/M01 A3035 RMK A01 T00851014  RH  050%=      5-min Rain = 0
KLA1 201624Z 15013KT 09/M01 A3035 RMK A01 T00861010  RH  051%=      5-min Rain = 0
KLA1 201625Z 15010KT 09/M01 A3035 RMK A01 T00871009  RH  051%=      5-min Rain = 0
KLA1 201626Z 15010G15KT 09/M01 A3035 RMK A01 T00891008  RH  051%=      5-min Rain = 0
KLA1 201627Z 15012KT 09/M01 A3035 RMK A01 T00891009  RH  050%=      5-min Rain = 0
KLA1 201628Z 15010KT 09/M01 A3035 RMK A01 T00891009  RH  050%=      5-min Rain = 0
KLA1 201629Z 15011KT 09/M01 A3035 RMK A01 T00891011  RH  050%=      5-min Rain = 0
KLA1 201630Z 15011KT 09/M01 A3035 RMK A01 T00891010  RH  050%=      5-min Rain = 0
KLA1 201631Z 16011KT 09/M01 A3035 RMK A01 T00881009  RH  050%=      5-min Rain = 0
KLA1 201632Z 14009KT 09/M01 A3035 RMK A01 T00891006  RH  051%=      5-min Rain = 0
KLA1 201633Z 15011KT 09/M01 A3035 RMK A01 T00911005  RH  051%=      5-min Rain = 0
KLA1 201634Z 15010KT 09/M01 A3035 RMK A01 T00921008  RH  049%=      5-min Rain = 0
KLA1 201635Z 13010KT 09/M01 A3035 RMK A01 T00921007  RH  050%=      5-min Rain = 0
KLA1 201636Z 14014KT 09/M01 A3035 RMK A01 T00921010  RH  049%=      5-min Rain = 0
KLA1 201637Z 14011KT 09/M01 A3035 RMK A01 T00901011  RH  049%=      5-min Rain = 0
KLA1 201638Z 14009KT 09/M01 A3035 RMK A01 T00891008  RH  051%=      5-min Rain = 0
KLA1 201639Z 14008KT 09/M01 A3035 RMK A01 T00911007  RH  051%=      5-min Rain = 0
KLA1 201640Z 13009KT 09/M01 A3034 RMK A01 T00921008  RH  050%=      5-min Rain = 0
KLA1 201641Z 13009KT 09/M01 A3034 RMK A01 T00921008  RH  049%=      5-min Rain = 0
KLA1 201642Z 14009KT 09/M01 A3034 RMK A01 T00921007  RH  050%=      5-min Rain = 0
KLA1 201643Z 14011KT 09/M01 A3034 RMK A01 T00931007  RH  050%=      5-min Rain = 0
KLA1 201644Z 14010KT 09/M01 A3034 RMK A01 T00931008  RH  049%=      5-min Rain = 0
KLA1 201645Z 14010KT 09/M01 A3034 RMK A01 T00921009  RH  049%=      5-min Rain = 0
KLA1 201646Z 14009KT 09/M01 A3034 RMK A01 T00911011  RH  049%=      5-min Rain = 0
KLA1 201647Z 15009KT 09/M01 A3034 RMK A01 T00911008  RH  050%=      5-min Rain = 0
KLA1 201648Z 16008KT 09/M01 A3034 RMK A01 T00921007  RH  050%=      5-min Rain = 0
KLA1 201649Z 14008KT 09/M00 A3034 RMK A01 T00941003  RH  051%=      5-min Rain = 0
KLA1 201650Z 15010KT 10/M01 A3034 RMK A01 T00951005  RH  050%=      5-min Rain = 0
KLA1 201651Z 15011KT 10/M01 A3034 RMK A01 T00951006  RH  049%=      5-min Rain = 0
KLA1 201652Z 15009KT 10/M01 A3034 RMK A01 T00951006  RH  049%=      5-min Rain = 0
KLA1 201653Z 15011KT 10/M01 A3034 RMK A01 T00951007  RH  049%=      5-min Rain = 0
KLA1 201654Z 14009KT 09/M01 A3034 RMK A01 T00941009  RH  048%=      5-min Rain = 0
KLA1 201655Z 14010KT 09/M01 A3034 RMK A01 T00941006  RH  050%=      5-min Rain = 0
KLA1 201656Z 14008KT 10/M01 A3034 RMK A01 T00951005  RH  050%=      5-min Rain = 0
KLA1 201657Z 15010KT 10/M01 A3034 RMK A01 T00961005  RH  049%=      5-min Rain = 0
KLA1 201658Z 14010KT 10/M01 A3034 RMK A01 T00961007  RH  049%=      5-min Rain = 0
KLA1 201659Z 13006KT 10/M01 A3034 RMK A01 T00961007  RH  049%=      5-min Rain = 0
KLA1 201700Z 14010KT 10/M01 A3034 RMK A01 T00961005  RH  049%=      5-min Rain = 0
KLA1 201701Z 15011KT 10/M01 A3034 RMK A01 T00971008  RH  048%=      5-min Rain = 0
KLA1 201702Z 14009KT 10/M01 A3034 RMK A01 T00951007  RH  049%=      5-min Rain = 0
KLA1 201703Z 14010KT 10/M01 A3034 RMK A01 T00961005  RH  049%=      5-min Rain = 0
KLA1 201704Z 14009KT 10/M01 A3034 RMK A01 T00971005  RH  049%=      5-min Rain = 0
KLA1 201705Z 15009KT 10/M01 A3034 RMK A01 T00971006  RH  049%=      5-min Rain = 0
KLA1 201706Z 13011KT 10/M01 A3034 RMK A01 T00971005  RH  049%=      5-min Rain = 0
KLA1 201707Z 13008KT 10/M01 A3034 RMK A01 T00981006  RH  048%=      5-min Rain = 0
KLA1 201708Z 13009KT 10/M00 A3034 RMK A01 T00991003  RH  049%=      5-min Rain = 0
KLA1 201709Z 14010KT 10/M01 A3034 RMK A01 T00991007  RH  048%=      5-min Rain = 0
KLA1 201710Z 14008KT 10/M01 A3034 RMK A01 T00971008  RH  048%=      5-min Rain = 0
KLA1 201711Z 14008KT 10/M01 A3034 RMK A01 T00971008  RH  048%=      5-min Rain = 0
KLA1 201712Z 15007KT 10/M01 A3034 RMK A01 T00971007  RH  048%=      5-min Rain = 0
KLA1 201713Z 15006KT 10/M01 A3034 RMK A01 T00971008  RH  048%=      5-min Rain = 0
KLA1 201714Z 14008KT 10/M01 A3034 RMK A01 T00991005  RH  049%=      5-min Rain = 0
KLA1 201715Z 15009KT 10/M01 A3034 RMK A01 T01001006  RH  048%=      5-min Rain = 0
KLA1 201716Z 15009KT 10/M01 A3033 RMK A01 T01011007  RH  047%=      5-min Rain = 0
KLA1 201717Z 15007KT 10/M01 A3033 RMK A01 T01001009  RH  047%=      5-min Rain = 0
KLA1 201718Z 15008KT 10/M00 A3033 RMK A01 T01011004  RH  048%=      5-min Rain = 0
KLA1 201719Z 14007KT 10/M01 A3033 RMK A01 T01031005  RH  047%=      5-min Rain = 0
KLA1 201720Z 16009KT 10/M01 A3033 RMK A01 T01021006  RH  047%=      5-min Rain = 0
KLA1 201721Z 16008KT 10/M01 A3033 RMK A01 T01021005  RH  047%=      5-min Rain = 0
KLA1 201722Z 15005KT 10/M01 A3033 RMK A01 T01021007  RH  047%=      5-min Rain = 0
KLA1 201723Z 16006KT 10/M01 A3033 RMK A01 T01031006  RH  047%=      5-min Rain = 0
KLA1 201724Z 18007KT 10/M01 A3033 RMK A01 T01041005  RH  047%=      5-min Rain = 0
KLA1 201725Z 17007KT 11/M00 A3033 RMK A01 T01061001  RH  047%=      5-min Rain = 0
KLA1 201726Z 16008KT 11/M00 A3033 RMK A01 T01081004  RH  046%=      5-min Rain = 0
KLA1 201727Z 15007KT 11/00 A3033 RMK A01 T01090001  RH  047%=      5-min Rain = 0
KLA1 201728Z 15006KT 11/M00 A3033 RMK A01 T01111004  RH  045%=      5-min Rain = 0
KLA1 201729Z 15006G11KT 11/M00 A3033 RMK A01 T01091003  RH  046%=      5-min Rain = 0
KLA1 201730Z 15010KT 11/M00 A3033 RMK A01 T01101003  RH  045%=      5-min Rain = 0
KLA1 201731Z 15010KT 11/M00 A3033 RMK A01 T01101003  RH  046%=      5-min Rain = 0
KLA1 201732Z 14008KT 11/M01 A3033 RMK A01 T01091005  RH  045%=      5-min Rain = 0
KLA1 201733Z 14011KT 11/M00 A3033 RMK A01 T01081004  RH  046%=      5-min Rain = 0
KLA1 201734Z 14009KT 11/M01 A3033 RMK A01 T01081005  RH  045%=      5-min Rain = 0
KLA1 201735Z 14009KT 11/M01 A3032 RMK A01 T01091005  RH  045%=      5-min Rain = 0
KLA1 201736Z 14012KT 11/M01 A3032 RMK A01 T01091005  RH  045%=      5-min Rain = 0
KLA1 201737Z 14011KT 11/M00 A3032 RMK A01 T01111004  RH  045%=      5-min Rain = 0
KLA1 201738Z 14010KT 11/M01 A3032 RMK A01 T01121005  RH  045%=      5-min Rain = 0
KLA1 201739Z 14009KT 11/M01 A3032 RMK A01 T01121006  RH  044%=      5-min Rain = 0
KLA1 201740Z 14010KT 11/M01 A3032 RMK A01 T01121005  RH  044%=      5-min Rain = 0
KLA1 201741Z 15011KT 11/M00 A3032 RMK A01 T01121004  RH  045%=      5-min Rain = 0
KLA1 201742Z 14010KT 11/M00 A3032 RMK A01 T01131004  RH  044%=      5-min Rain = 0
KLA1 201743Z 14010KT 11/M01 A3032 RMK A01 T01131005  RH  044%=      5-min Rain = 0
KLA1 201744Z 14012KT 11/M01 A3032 RMK A01 T01131005  RH  044%=      5-min Rain = 0
KLA1 201745Z 14009KT 11/M01 A3031 RMK A01 T01121006  RH  044%=      5-min Rain = 0
KLA1 201746Z 15007KT 11/M01 A3031 RMK A01 T01121007  RH  044%=      5-min Rain = 0
KLA1 201747Z 14008KT 11/M01 A3031 RMK A01 T01111006  RH  044%=      5-min Rain = 0
KLA1 201748Z 14008G13KT 11/00 A3031 RMK A01 T01130000  RH  046%=      5-min Rain = 0
KLA1 201749Z 14010KT 12/M00 A3031 RMK A01 T01151003  RH  044%=      5-min Rain = 0
KLA1 201750Z 15010KT 12/M00 A3031 RMK A01 T01151004  RH  044%=      5-min Rain = 0
KLA1 201751Z 14009KT 11/M01 A3031 RMK A01 T01141006  RH  043%=      5-min Rain = 0
KLA1 201752Z 15010KT 11/M01 A3031 RMK A01 T01131005  RH  044%=      5-min Rain = 0
KLA1 201753Z 15010KT 11/M01 A3031 RMK A01 T01141005  RH  044%=      5-min Rain = 0
KLA1 201754Z 15008KT 11/M01 A3031 RMK A01 T01141005  RH  044%=      5-min Rain = 0
KLA1 201755Z 15010KT 12/M00 A3031 RMK A01 T01161002  RH  044%=      5-min Rain = 0
KLA1 201756Z 14012KT 12/M00 A3031 RMK A01 T01171003  RH  043%=      5-min Rain = 0
KLA1 201757Z 14011KT 12/M00 A3031 RMK A01 T01171004  RH  043%=      5-min Rain = 0
KLA1 201758Z 13011KT 12/M00 A3031 RMK A01 T01171002  RH  044%=      5-min Rain = 0
KLA1 201759Z 15011KT 12/00 A3031 RMK A01 T011900-0  RH  044%=      5-min Rain = 0
KLA1 201800Z 14011KT 12/M00 A3031 RMK A01 T01191003  RH  043%=      5-min Rain = 0
KLA1 201801Z 14010KT 12/M01 A3031 RMK A01 T01181005  RH  043%=      5-min Rain = 0
KLA1 201802Z 14010KT 12/M01 A3031 RMK A01 T01161007  RH  043%=      5-min Rain = 0
KLA1 201803Z 14010KT 12/M01 A3031 RMK A01 T01151005  RH  043%=      5-min Rain = 0
KLA1 201804Z 14012KT 12/M01 A3031 RMK A01 T01151006  RH  043%=      5-min Rain = 0
KLA1 201805Z 14011KT 12/M01 A303 RMK A01 T01151006  RH  043%=      5-min Rain = 0
KLA1 201806Z 14009KT 12/M01 A303 RMK A01 T01151005  RH  043%=      5-min Rain = 0
KLA1 201807Z 14009KT 12/M00 A303 RMK A01 T01171003  RH  043%=      5-min Rain = 0
KLA1 201808Z 14009KT 12/M01 A303 RMK A01 T01181005  RH  043%=      5-min Rain = 0
KLA1 201809Z 16010KT 12/M00 A303 RMK A01 T01191004  RH  043%=      5-min Rain = 0
KLA1 201810Z 16009KT 12/M00 A303 RMK A01 T01191003  RH  043%=      5-min Rain = 0
KLA1 201811Z 15010KT 12/M00 A3029 RMK A01 T01211001  RH  043%=      5-min Rain = 0
KLA1 201812Z 15012KT 12/M00 A3029 RMK A01 T01211003  RH  042%=      5-min Rain = 0
KLA1 201813Z 14011KT 12/M00 A3029 RMK A01 T01211003  RH  042%=      5-min Rain = 0
KLA1 201814Z 14010KT 12/M00 A3029 RMK A01 T01211002  RH  043%=      5-min Rain = 0
KLA1 201815Z 15009KT 12/M00 A3029 RMK A01 T01221002  RH  042%=      5-min Rain = 0
KLA1 201816Z 14010KT 12/M00 A3029 RMK A01 T01221002  RH  043%=      5-min Rain = 0
KLA1 201817Z 15010KT 12/M00 A3029 RMK A01 T01231002  RH  042%=      5-min Rain = 0
KLA1 201818Z 14009KT 12/M00 A3028 RMK A01 T01221003  RH  042%=      5-min Rain = 0
KLA1 201819Z 13008KT 12/M00 A3028 RMK A01 T01241001  RH  042%=      5-min Rain = 0
KLA1 201820Z 14011KT 13/00 A3028 RMK A01 T01260001  RH  042%=      5-min Rain = 0
KLA1 201821Z 15010KT 13/M00 A3028 RMK A01 T01271001  RH  041%=      5-min Rain = 0
KLA1 201822Z 13011KT 13/M00 A3028 RMK A01 T01261002  RH  041%=      5-min Rain = 0
KLA1 201823Z 14013KT 13/M00 A3028 RMK A01 T01251002  RH  042%=      5-min Rain = 0
KLA1 201824Z 13010KT 12/M00 A3028 RMK A01 T01241002  RH  042%=      5-min Rain = 0
KLA1 201825Z 13011KT 13/00 A3028 RMK A01 T01250000  RH  042%=      5-min Rain = 0
KLA1 201826Z 16010KT 13/00 A3027 RMK A01 T012600-0  RH  042%=      5-min Rain = 0
KLA1 201827Z 16011KT 13/00 A3027 RMK A01 T012700-0  RH  042%=      5-min Rain = 0
KLA1 201828Z 15008KT 13/M00 A3027 RMK A01 T01271001  RH  041%=      5-min Rain = 0
KLA1 201829Z 15009KT 13/00 A3027 RMK A01 T012700-0  RH  042%=      5-min Rain = 0
KLA1 201830Z 15009KT 13/M00 A3027 RMK A01 T01261003  RH  041%=      5-min Rain = 0
KLA1 201831Z 14010KT 13/M00 A3027 RMK A01 T01261002  RH  042%=      5-min Rain = 0
KLA1 201832Z 15009KT 13/M00 A3027 RMK A01 T01251001  RH  042%=      5-min Rain = 0
KLA1 201833Z 15007KT 13/M00 A3027 RMK A01 T01251002  RH  042%=      5-min Rain = 0
KLA1 201834Z 14009KT 13/00 A3026 RMK A01 T01250002  RH  043%=      5-min Rain = 0
KLA1 201835Z 14010KT 13/00 A3026 RMK A01 T01280003  RH  042%=      5-min Rain = 0
KLA1 201836Z 16008KT 13/01 A3026 RMK A01 T01310005  RH  042%=      5-min Rain = 0
KLA1 201837Z 16009KT 13/00 A3026 RMK A01 T01320002  RH  041%=      5-min Rain = 0
KLA1 201838Z 16010KT 13/00 A3026 RMK A01 T01320000  RH  040%=      5-min Rain = 0
KLA1 201839Z 14010KT 13/00 A3026 RMK A01 T01320004  RH  042%=      5-min Rain = 0
KLA1 201840Z 13010KT 13/01 A3026 RMK A01 T01340006  RH  042%=      5-min Rain = 0
KLA1 201841Z 12012KT 13/00 A3026 RMK A01 T01340002  RH  040%=      5-min Rain = 0
KLA1 201842Z 14010KT 13/00 A3026 RMK A01 T01330003  RH  041%=      5-min Rain = 0
KLA1 201843Z 14008KT 13/00 A3026 RMK A01 T01330003  RH  041%=      5-min Rain = 0
KLA1 201844Z 14010KT 13/00 A3026 RMK A01 T01330003  RH  041%=      5-min Rain = 0
KLA1 201845Z 14012KT 13/00 A3026 RMK A01 T01320002  RH  041%=      5-min Rain = 0
KLA1 201846Z 15009G14KT 13/00 A3026 RMK A01 T01310001  RH  041%=      5-min Rain = 0
KLA1 201847Z 14011KT 13/00 A3026 RMK A01 T01320003  RH  041%=      5-min Rain = 0
KLA1 201848Z 15010KT 13/00 A3026 RMK A01 T01330002  RH  041%=      5-min Rain = 0
KLA1 201849Z 16009KT 13/00 A3026 RMK A01 T01340002  RH  040%=      5-min Rain = 0
KLA1 201850Z 15007KT 13/01 A3026 RMK A01 T01340005  RH  041%=      5-min Rain = 0
KLA1 201851Z 14009KT 14/00 A3026 RMK A01 T01360003  RH  040%=      5-min Rain = 0
KLA1 201852Z 14010KT 14/00 A3025 RMK A01 T01360004  RH  040%=      5-min Rain = 0
KLA1 201853Z 15009KT 14/01 A3025 RMK A01 T01380008  RH  041%=      5-min Rain = 0
KLA1 201854Z 17007KT 14/00 A3025 RMK A01 T01390003  RH  040%=      5-min Rain = 0
KLA1 201855Z 18006KT 14/01 A3025 RMK A01 T01390009  RH  041%=      5-min Rain = 0
KLA1 201856Z 16007KT 14/01 A3025 RMK A01 T01410007  RH  040%=      5-min Rain = 0
KLA1 201857Z 15009KT 14/01 A3025 RMK A01 T01410006  RH  040%=      5-min Rain = 0
KLA1 201858Z 17007KT 14/01 A3025 RMK A01 T01420008  RH  040%=      5-min Rain = 0
KLA1 201859Z 17010KT 14/01 A3025 RMK A01 T01420006  RH  039%=      5-min Rain = 0
KLA1 201900Z 17007KT 14/00 A3025 RMK A01 T01400002  RH  039%=      5-min Rain = 0
KLA1 201901Z 17006G12KT 14/01 A3025 RMK A01 T01390005  RH  040%=      5-min Rain = 0
KLA1 201902Z 18009KT 14/01 A3025 RMK A01 T01410006  RH  040%=      5-min Rain = 0
KLA1 201903Z 15009KT 14/01 A3025 RMK A01 T01410005  RH  039%=      5-min Rain = 0
KLA1 201904Z 15010KT 14/01 A3025 RMK A01 T01420005  RH  039%=      5-min Rain = 0
KLA1 201905Z 18010KT 14/01 A3024 RMK A01 T01420005  RH  039%=      5-min Rain = 0
KLA1 201906Z 18010KT 14/00 A3024 RMK A01 T01410003  RH  039%=      5-min Rain = 0
KLA1 201907Z 18010KT 14/00 A3024 RMK A01 T01410004  RH  039%=      5-min Rain = 0
KLA1 201908Z 16008KT 14/00 A3024 RMK A01 T01420003  RH  039%=      5-min Rain = 0
KLA1 201909Z 15011KT 14/00 A3024 RMK A01 T01430004  RH  039%=      5-min Rain = 0
KLA1 201910Z 15009KT 14/00 A3024 RMK A01 T01430003  RH  038%=      5-min Rain = 0
KLA1 201911Z 17008KT 14/00 A3024 RMK A01 T01430004  RH  039%=      5-min Rain = 0
KLA1 201912Z 14008KT 14/01 A3024 RMK A01 T01430006  RH  039%=      5-min Rain = 0
KLA1 201913Z 15009KT 14/01 A3024 RMK A01 T01440007  RH  039%=      5-min Rain = 0
KLA1 201914Z 15010KT 15/01 A3024 RMK A01 T01450006  RH  039%=      5-min Rain = 0
KLA1 201915Z 16008KT 15/01 A3024 RMK A01 T01460005  RH  038%=      5-min Rain = 0
KLA1 201916Z 16011KT 15/01 A3024 RMK A01 T01460005  RH  038%=      5-min Rain = 0
KLA1 201917Z 15008KT 15/00 A3024 RMK A01 T01450004  RH  038%=      5-min Rain = 0
KLA1 201918Z 15009KT 15/01 A3023 RMK A01 T01460006  RH  039%=      5-min Rain = 0
KLA1 201919Z 15009KT 15/00 A3023 RMK A01 T01450000  RH  037%=      5-min Rain = 0
KLA1 201920Z 16010KT 14/00 A3023 RMK A01 T01430003  RH  039%=      5-min Rain = 0
KLA1 201921Z 16010KT 14/00 A3023 RMK A01 T01440003  RH  038%=      5-min Rain = 0
KLA1 201922Z 15010KT 14/01 A3023 RMK A01 T01440006  RH  039%=      5-min Rain = 0
KLA1 201923Z 15009KT 15/00 A3023 RMK A01 T01460004  RH  038%=      5-min Rain = 0
KLA1 201924Z 14008KT 15/00 A3023 RMK A01 T01460004  RH  038%=      5-min Rain = 0
KLA1 201925Z 16009KT 15/00 A3023 RMK A01 T01460003  RH  038%=      5-min Rain = 0
KLA1 201926Z 16011KT 15/00 A3023 RMK A01 T01460003  RH  038%=      5-min Rain = 0
KLA1 201927Z 16012KT 15/00 A3022 RMK A01 T01450002  RH  038%=      5-min Rain = 0
KLA1 201928Z 16011KT 15/00 A3022 RMK A01 T01450001  RH  037%=      5-min Rain = 0
KLA1 201929Z 16008KT 15/01 A3022 RMK A01 T01450005  RH  038%=      5-min Rain = 0
KLA1 201930Z 15009KT 15/01 A3022 RMK A01 T01460005  RH  038%=      5-min Rain = 0
KLA1 201931Z 16008KT 15/00 A3022 RMK A01 T01470004  RH  038%=      5-min Rain = 0
KLA1 201932Z 17006KT 15/01 A3022 RMK A01 T01480009  RH  039%=      5-min Rain = 0
KLA1 201933Z 15009KT 15/00 A3022 RMK A01 T01490004  RH  037%=      5-min Rain = 0
KLA1 201934Z 16008KT 15/00 A3022 RMK A01 T01490000  RH  036%=      5-min Rain = 0
KLA1 201935Z 15007KT 15/00 A3022 RMK A01 T01480000  RH  036%=      5-min Rain = 0
KLA1 201936Z 16008KT 15/00 A3022 RMK A01 T01480000  RH  036%=      5-min Rain = 0
KLA1 201937Z 16009KT 15/00 A3022 RMK A01 T01480000  RH  036%=      5-min Rain = 0
KLA1 201938Z 15007KT 15/00 A3022 RMK A01 T01490002  RH  037%=      5-min Rain = 0
KLA1 201939Z 15007KT 15/M00 A3022 RMK A01 T01491001  RH  036%=      5-min Rain = 0
KLA1 201940Z 16006KT 15/M00 A3022 RMK A01 T01491001  RH  036%=      5-min Rain = 0
KLA1 201941Z 18006KT 15/M00 A3022 RMK A01 T01491001  RH  036%=      5-min Rain = 0
KLA1 201942Z 16006KT 15/00 A3021 RMK A01 T01510003  RH  037%=      5-min Rain = 0
KLA1 201943Z 17008KT 15/01 A3021 RMK A01 T01530007  RH  037%=      5-min Rain = 0
KLA1 201944Z 18008KT 15/M00 A3021 RMK A01 T01541001  RH  035%=      5-min Rain = 0
KLA1 201945Z 18008KT 15/M00 A3021 RMK A01 T01511003  RH  035%=      5-min Rain = 0
KLA1 201946Z 18008KT 15/M00 A3021 RMK A01 T01501002  RH  035%=      5-min Rain = 0
KLA1 201947Z 17008KT 15/00 A3021 RMK A01 T01510004  RH  037%=      5-min Rain = 0
KLA1 201948Z 16006KT 15/01 A3021 RMK A01 T01540005  RH  036%=      5-min Rain = 0
KLA1 201949Z 14005KT 16/01 A3021 RMK A01 T01550007  RH  036%=      5-min Rain = 0
KLA1 201950Z 16010KT 16/01 A3021 RMK A01 T01580009  RH  036%=      5-min Rain = 0
KLA1 201951Z 16010KT 16/M00 A3021 RMK A01 T01571001  RH  034%=      5-min Rain = 0
KLA1 201952Z 16011KT 15/M00 A302 RMK A01 T01541003  RH  034%=      5-min Rain = 0
KLA1 201953Z 16006KT 15/00 A302 RMK A01 T01530001  RH  035%=      5-min Rain = 0
KLA1 201954Z 17009KT 15/M00 A302 RMK A01 T01531001  RH  035%=      5-min Rain = 0
KLA1 201955Z 17010KT 15/M00 A302 RMK A01 T01531002  RH  035%=      5-min Rain = 0
KLA1 201956Z 16012KT 15/M00 A302 RMK A01 T01531002  RH  035%=      5-min Rain = 0
KLA1 201957Z 17009KT 15/M00 A302 RMK A01 T01531001  RH  035%=      5-min Rain = 0
KLA1 201958Z 18008KT 15/00 A302 RMK A01 T015300-0  RH  035%=      5-min Rain = 0
KLA1 201959Z 18008KT 15/00 A302 RMK A01 T015400-0  RH  035%=      5-min Rain = 0
KLA1 202000Z 18006KT 15/M00 A302 RMK A01 T01541004  RH  034%=      5-min Rain = 0
KLA1 202001Z 18008KT 15/M00 A302 RMK A01 T01541002  RH  034%=      5-min Rain = 0
KLA1 202002Z 17010KT 16/M00 A302 RMK A01 T01551003  RH  034%=      5-min Rain = 0
KLA1 202003Z 17008KT 16/00 A302 RMK A01 T015600-0  RH  035%=      5-min Rain = 0
KLA1 202004Z 18007KT 16/M00 A302 RMK A01 T01571001  RH  034%=      5-min Rain = 0
KLA1 202005Z 20010KT 16/00 A302 RMK A01 T01570000  RH  034%=      5-min Rain = 0
KLA1 202006Z 18009KT 16/00 A302 RMK A01 T01580001  RH  034%=      5-min Rain = 0
KLA1 202007Z 16009KT 16/M00 A302 RMK A01 T01581002  RH  034%=      5-min Rain = 0
KLA1 202008Z 18008KT 16/M00 A302 RMK A01 T01581002  RH  034%=      5-min Rain = 0
KLA1 202009Z 17006KT 16/M00 A302 RMK A01 T01571003  RH  034%=      5-min Rain = 0
KLA1 202010Z 17008KT 16/M00 A302 RMK A01 T01561003  RH  034%=      5-min Rain = 0
KLA1 202011Z 17008KT 16/M00 A302 RMK A01 T01561002  RH  034%=      5-min Rain = 0
KLA1 202012Z 17006KT 16/M00 A302 RMK A01 T01561003  RH  034%=      5-min Rain = 0
KLA1 202013Z 18007KT 16/M00 A302 RMK A01 T01561001  RH  034%=      5-min Rain = 0
KLA1 202014Z 19006KT 16/M01 A302 RMK A01 T01571007  RH  033%=      5-min Rain = 0
KLA1 202015Z 19006KT 16/M00 A302 RMK A01 T01581004  RH  033%=      5-min Rain = 0
KLA1 202016Z 20004KT 16/M00 A302 RMK A01 T01591004  RH  033%=      5-min Rain = 0
KLA1 202017Z 19004KT 16/00 A302 RMK A01 T016000-0  RH  034%=      5-min Rain = 0
KLA1 202018Z 18010KT 16/00 A302 RMK A01 T01630003  RH  034%=      5-min Rain = 0
KLA1 202019Z 17009KT 16/M00 A302 RMK A01 T01641002  RH  032%=      5-min Rain = 0
KLA1 202020Z 18006KT 16/M01 A302 RMK A01 T01611005  RH  032%=      5-min Rain = 0
KLA1 202021Z 18008KT 16/M00 A302 RMK A01 T01601003  RH  033%=      5-min Rain = 0
KLA1 202022Z 17009KT 16/M01 A302 RMK A01 T01591006  RH  032%=      5-min Rain = 0
KLA1 202023Z 17009KT 16/M00 A302 RMK A01 T01601004  RH  033%=      5-min Rain = 0
KLA1 202024Z 18011KT 16/M01 A302 RMK A01 T01611005  RH  032%=      5-min Rain = 0
KLA1 202025Z 19006KT 16/M01 A302 RMK A01 T01611006  RH  032%=      5-min Rain = 0
KLA1 202026Z 18006KT 16/M00 A302 RMK A01 T01601004  RH  033%=      5-min Rain = 0
KLA1 202027Z 18007KT 16/M00 A302 RMK A01 T01601002  RH  033%=      5-min Rain = 0
KLA1 202028Z 19008KT 16/M00 A3019 RMK A01 T01621002  RH  033%=      5-min Rain = 0
KLA1 202029Z 20009KT 16/M00 A3019 RMK A01 T01621003  RH  032%=      5-min Rain = 0
KLA1 202030Z 20007KT 16/M01 A3019 RMK A01 T01611008  RH  032%=      5-min Rain = 0
KLA1 202031Z 19008KT 16/M00 A3019 RMK A01 T01581003  RH  033%=      5-min Rain = 0
KLA1 202032Z 19007KT 16/M01 A3019 RMK A01 T01591005  RH  033%=      5-min Rain = 0
KLA1 202033Z 18009KT 16/M00 A3019 RMK A01 T01591003  RH  033%=      5-min Rain = 0
KLA1 202034Z 19009KT 16/M00 A3019 RMK A01 T01601003  RH  033%=      5-min Rain = 0
KLA1 202035Z 16007KT 16/M00 A3019 RMK A01 T01601004  RH  033%=      5-min Rain = 0
KLA1 202036Z 17007KT 16/M01 A3019 RMK A01 T01601008  RH  032%=      5-min Rain = 0
KLA1 202037Z 19008KT 16/M01 A3019 RMK A01 T01611005  RH  032%=      5-min Rain = 0
KLA1 202038Z 18007KT 16/M01 A3019 RMK A01 T01601010  RH  031%=      5-min Rain = 0
KLA1 202039Z 16008KT 16/M01 A3019 RMK A01 T01591007  RH  032%=      5-min Rain = 0
KLA1 202040Z 16011KT 16/M01 A3019 RMK A01 T01591009  RH  032%=      5-min Rain = 0
KLA1 202041Z 17013KT 16/M01 A3019 RMK A01 T01601005  RH  032%=      5-min Rain = 0
KLA1 202042Z 17010KT 16/M01 A3019 RMK A01 T01601005  RH  032%=      5-min Rain = 0
KLA1 202043Z 18010KT 16/M01 A3019 RMK A01 T01611005  RH  032%=      5-min Rain = 0
KLA1 202044Z 17009KT 16/M01 A3019 RMK A01 T01611006  RH  032%=      5-min Rain = 0
KLA1 202045Z 16006KT 16/M00 A3018 RMK A01 T01621004  RH  032%=      5-min Rain = 0
KLA1 202046Z 15008G16KT 16/M00 A3018 RMK A01 T01641002  RH  032%=      5-min Rain = 0
KLA1 202047Z 14011KT 17/M01 A3018 RMK A01 T01651006  RH  031%=      5-min Rain = 0
KLA1 202048Z 14010KT 16/M01 A3018 RMK A01 T01631006  RH  031%=      5-min Rain = 0
KLA1 202049Z 16010KT 16/M00 A3018 RMK A01 T01631004  RH  032%=      5-min Rain = 0
KLA1 202050Z 17009KT 16/M01 A3018 RMK A01 T01631005  RH  032%=      5-min Rain = 0
KLA1 202051Z 16008KT 16/M01 A3018 RMK A01 T01621007  RH  032%=      5-min Rain = 0
KLA1 202052Z 15009KT 16/M01 A3018 RMK A01 T01611009  RH  031%=      5-min Rain = 0
KLA1 202053Z 16007KT 16/M01 A3018 RMK A01 T01611008  RH  032%=      5-min Rain = 0
KLA1 202054Z 17010KT 16/M01 A3018 RMK A01 T01611009  RH  031%=      5-min Rain = 0
KLA1 202055Z 16009KT 16/M01 A3018 RMK A01 T01601007  RH  032%=      5-min Rain = 0
KLA1 202056Z 15009KT 16/M01 A3018 RMK A01 T01601006  RH  032%=      5-min Rain = 0
KLA1 202057Z 16009KT 16/M00 A3018 RMK A01 T01621003  RH  033%=      5-min Rain = 0
KLA1 202058Z 16009KT 16/M00 A3018 RMK A01 T01641004  RH  032%=      5-min Rain = 0
KLA1 202059Z 15007KT 16/M01 A3018 RMK A01 T01621007  RH  031%=      5-min Rain = 0
KLA1 202100Z 15007KT 16/M01 A3017 RMK A01 T01611008  RH  032%=      5-min Rain = 0
KLA1 202101Z 15008KT 16/M00 A3017 RMK A01 T01611004  RH  032%=      5-min Rain = 0
KLA1 202102Z 16012KT 16/M01 A3017 RMK A01 T01621006  RH  032%=      5-min Rain = 0
KLA1 202103Z 19010KT 16/M01 A3017 RMK A01 T01621006  RH  032%=      5-min Rain = 0
KLA1 202104Z 17011KT 16/M00 A3017 RMK A01 T01621003  RH  032%=      5-min Rain = 0
KLA1 202105Z 16012KT 16/M01 A3017 RMK A01 T01631006  RH  031%=      5-min Rain = 0
KLA1 202106Z 18009KT 16/M01 A3017 RMK A01 T01621009  RH  031%=      5-min Rain = 0
KLA1 202107Z 17006KT 16/M00 A3017 RMK A01 T01611003  RH  033%=      5-min Rain = 0
KLA1 202108Z 16005KT 16/M01 A3017 RMK A01 T01621006  RH  032%=      5-min Rain = 0
KLA1 202109Z 17007KT 16/M00 A3017 RMK A01 T01631003  RH  032%=      5-min Rain = 0
KLA1 202110Z 18007KT 16/M01 A3017 RMK A01 T01641005  RH  032%=      5-min Rain = 0
KLA1 202111Z 19006KT 16/M01 A3017 RMK A01 T01641005  RH  032%=      5-min Rain = 0
KLA1 202112Z 17008KT 16/M01 A3017 RMK A01 T01641005  RH  032%=      5-min Rain = 0
KLA1 202113Z 15008KT 17/M00 A3017 RMK A01 T01651002  RH  032%=      5-min Rain = 0
KLA1 202114Z 16009KT 17/00 A3017 RMK A01 T01660000  RH  032%=      5-min Rain = 0
KLA1 202115Z 16008KT 17/M00 A3017 RMK A01 T01671002  RH  032%=      5-min Rain = 0
KLA1 202116Z 15007KT 17/M00 A3016 RMK A01 T01671002  RH  032%=      5-min Rain = 0
KLA1 202117Z 17009KT 17/00 A3016 RMK A01 T01670000  RH  032%=      5-min Rain = 0
KLA1 202118Z 17010KT 17/M01 A3016 RMK A01 T01671005  RH  031%=      5-min Rain = 0
KLA1 202119Z 17009KT 17/M01 A3016 RMK A01 T01651005  RH  031%=      5-min Rain = 0
KLA1 202120Z 17011KT 16/M01 A3016 RMK A01 T01641006  RH  031%=      5-min Rain = 0
KLA1 202121Z 18010KT 16/M01 A3016 RMK A01 T01641006  RH  031%=      5-min Rain = 0
KLA1 202122Z 18009KT 16/M00 A3016 RMK A01 T01641004  RH  032%=      5-min Rain = 0
KLA1 202123Z 18011KT 17/M00 A3016 RMK A01 T01651003  RH  032%=      5-min Rain = 0
KLA1 202124Z 17009KT 17/M00 A3016 RMK A01 T01671003  RH  032%=      5-min Rain = 0
KLA1 202125Z 17007KT 17/M01 A3016 RMK A01 T01671006  RH  031%=      5-min Rain = 0
KLA1 202126Z 19006G13KT 17/M00 A3016 RMK A01 T01661003  RH  032%=      5-min Rain = 0
KLA1 202127Z 17011KT 17/M00 A3016 RMK A01 T01671002  RH  032%=      5-min Rain = 0
KLA1 202128Z 17010KT 17/M01 A3016 RMK A01 T01681005  RH  031%=      5-min Rain = 0
KLA1 202129Z 18010KT 17/M01 A3016 RMK A01 T01661010  RH  030%=      5-min Rain = 0
KLA1 202130Z 18010KT 17/M01 A3016 RMK A01 T01661007  RH  031%=      5-min Rain = 0
KLA1 202131Z 18012KT 17/M01 A3016 RMK A01 T01661008  RH  030%=      5-min Rain = 0
KLA1 202132Z 18009KT 17/M01 A3016 RMK A01 T01651009  RH  030%=      5-min Rain = 0
KLA1 202133Z 19011KT 17/M01 A3016 RMK A01 T01651008  RH  031%=      5-min Rain = 0
KLA1 202134Z 17010KT 17/M00 A3016 RMK A01 T01671004  RH  031%=      5-min Rain = 0
KLA1 202135Z 17009KT 17/M01 A3016 RMK A01 T01681006  RH  031%=      5-min Rain = 0
KLA1 202136Z 17008KT 17/M01 A3016 RMK A01 T01681008  RH  030%=      5-min Rain = 0
KLA1 202137Z 17005KT 17/M01 A3016 RMK A01 T01681010  RH  030%=      5-min Rain = 0
KLA1 202138Z 17010KT 17/M01 A3016 RMK A01 T01681005  RH  031%=      5-min Rain = 0
KLA1 202139Z 16010KT 17/M00 A3016 RMK A01 T01701004  RH  031%=      5-min Rain = 0
KLA1 202140Z 16008KT 17/M01 A3016 RMK A01 T01701006  RH  030%=      5-min Rain = 0
KLA1 202141Z 15009KT 17/M01 A3016 RMK A01 T01701005  RH  030%=      5-min Rain = 0
KLA1 202142Z 16009KT 17/M01 A3016 RMK A01 T01701006  RH  030%=      5-min Rain = 0
KLA1 202143Z 18009KT 17/M01 A3016 RMK A01 T01691006  RH  030%=      5-min Rain = 0
KLA1 202144Z 18008KT 17/M01 A3016 RMK A01 T01691006  RH  030%=      5-min Rain = 0
KLA1 202145Z 17006KT 17/M01 A3016 RMK A01 T01691006  RH  031%=      5-min Rain = 0
KLA1 202146Z 16005KT 17/M01 A3016 RMK A01 T01691005  RH  031%=      5-min Rain = 0
KLA1 202147Z 18009KT 17/M00 A3016 RMK A01 T01701002  RH  031%=      5-min Rain = 0
KLA1 202148Z 19010KT 17/M00 A3016 RMK A01 T01701004  RH  031%=      5-min Rain = 0
KLA1 202149Z 19008KT 17/M01 A3016 RMK A01 T01701005  RH  030%=      5-min Rain = 0
KLA1 202150Z 18008KT 17/M01 A3016 RMK A01 T01701005  RH  030%=      5-min Rain = 0
KLA1 202151Z 18008G13KT 17/M00 A3017 RMK A01 T01701002  RH  031%=      5-min Rain = 0
KLA1 202152Z 19009G14KT 17/M00 A3017 RMK A01 T01711003  RH  031%=      5-min Rain = 0
KLA1 202153Z 20006KT 17/M01 A3017 RMK A01 T01711006  RH  030%=      5-min Rain = 0
KLA1 202154Z 19008KT 17/M00 A3016 RMK A01 T01711002  RH  031%=      5-min Rain = 0
KLA1 202155Z 17009KT 17/M00 A3016 RMK A01 T01721002  RH  031%=      5-min Rain = 0
KLA1 202156Z 18008KT 17/00 A3016 RMK A01 T01730001  RH  031%=      5-min Rain = 0
KLA1 202157Z 15008KT 17/01 A3016 RMK A01 T01740006  RH  032%=      5-min Rain = 0
KLA1 202158Z 15007KT 18/M00 A3016 RMK A01 T01761001  RH  030%=      5-min Rain = 0
KLA1 202159Z 17007KT 18/00 A3016 RMK A01 T01750002  RH  031%=      5-min Rain = 0
KLA1 202200Z 18010KT 18/01 A3016 RMK A01 T01760005  RH  032%=      5-min Rain = 0
KLA1 202201Z 20010KT 18/00 A3016 RMK A01 T01770003  RH  031%=      5-min Rain = 0
KLA1 202202Z 19008KT 18/M00 A3016 RMK A01 T01761003  RH  030%=      5-min Rain = 0
KLA1 202203Z 18006KT 17/M00 A3016 RMK A01 T01741002  RH  031%=      5-min Rain = 0
KLA1 202204Z 15006KT 17/00 A3016 RMK A01 T01730002  RH  031%=      5-min Rain = 0
KLA1 202205Z 16008KT 18/00 A3016 RMK A01 T01750003  RH  031%=      5-min Rain = 0
KLA1 202206Z 17006KT 18/00 A3016 RMK A01 T017500-0  RH  031%=      5-min Rain = 0
KLA1 202207Z 17007KT 17/00 A3016 RMK A01 T01740001  RH  031%=      5-min Rain = 0
KLA1 202208Z 15005KT 17/00 A3016 RMK A01 T01740002  RH  031%=      5-min Rain = 0
KLA1 202209Z 16007KT 18/00 A3016 RMK A01 T01750002  RH  031%=      5-min Rain = 0
KLA1 202210Z 17006KT 18/00 A3016 RMK A01 T01750003  RH  031%=      5-min Rain = 0
KLA1 202211Z 18008KT 18/00 A3016 RMK A01 T01760003  RH  031%=      5-min Rain = 0
KLA1 202212Z 17007KT 18/00 A3016 RMK A01 T01760003  RH  031%=      5-min Rain = 0
KLA1 202213Z 15009KT 18/00 A3016 RMK A01 T01760004  RH  031%=      5-min Rain = 0
KLA1 202214Z 15011KT 18/00 A3016 RMK A01 T01750001  RH  031%=      5-min Rain = 0
KLA1 202215Z 15009KT 17/M00 A3016 RMK A01 T01731002  RH  031%=      5-min Rain = 0
KLA1 202216Z 16008KT 17/00 A3016 RMK A01 T017200-0  RH  031%=      5-min Rain = 0
KLA1 202217Z 17008KT 17/00 A3016 RMK A01 T01720001  RH  031%=      5-min Rain = 0
KLA1 202218Z 16012KT 17/00 A3016 RMK A01 T01720002  RH  032%=      5-min Rain = 0
KLA1 202219Z 15009KT 17/M00 A3016 RMK A01 T01721002  RH  031%=      5-min Rain = 0
KLA1 202220Z 16008KT 17/00 A3016 RMK A01 T017100-0  RH  031%=      5-min Rain = 0
KLA1 202221Z 17008KT 17/00 A3016 RMK A01 T01710002  RH  032%=      5-min Rain = 0
KLA1 202222Z 17010KT 17/00 A3016 RMK A01 T01730002  RH  031%=      5-min Rain = 0
KLA1 202223Z 17008KT 17/00 A3016 RMK A01 T01730001  RH  031%=      5-min Rain = 0
KLA1 202224Z 17008KT 17/00 A3016 RMK A01 T01730001  RH  031%=      5-min Rain = 0
KLA1 202225Z 17008KT 17/00 A3016 RMK A01 T01730002  RH  031%=      5-min Rain = 0
KLA1 202226Z 17009KT 17/00 A3016 RMK A01 T01730000  RH  031%=      5-min Rain = 0
KLA1 202227Z 16011KT 17/00 A3016 RMK A01 T01730001  RH  031%=      5-min Rain = 0
KLA1 202228Z 17009KT 17/00 A3016 RMK A01 T017300-0  RH  031%=      5-min Rain = 0
KLA1 202229Z 17011KT 17/00 A3016 RMK A01 T01730001  RH  031%=      5-min Rain = 0
KLA1 202230Z 18008KT 17/M00 A3016 RMK A01 T01721003  RH  030%=      5-min Rain = 0
KLA1 202231Z 18008KT 17/M00 A3016 RMK A01 T01721002  RH  031%=      5-min Rain = 0
KLA1 202232Z 17010KT 17/00 A3016 RMK A01 T017100-0  RH  031%=      5-min Rain = 0
KLA1 202233Z 18010KT 17/M00 A3016 RMK A01 T01721002  RH  031%=      5-min Rain = 0
KLA1 202234Z 17012KT 17/00 A3016 RMK A01 T017200-0  RH  031%=      5-min Rain = 0
KLA1 202235Z 16010KT 17/M00 A3016 RMK A01 T01711001  RH  031%=      5-min Rain = 0
KLA1 202236Z 16010KT 17/M00 A3016 RMK A01 T01711002  RH  031%=      5-min Rain = 0
KLA1 202237Z 16006KT 17/00 A3016 RMK A01 T017100-0  RH  031%=      5-min Rain = 0
KLA1 202238Z 18005KT 17/00 A3016 RMK A01 T017100-0  RH  031%=      5-min Rain = 0
KLA1 202239Z 16008KT 17/00 A3016 RMK A01 T01720002  RH  032%=      5-min Rain = 0
KLA1 202240Z 17009KT 17/00 A3016 RMK A01 T01730002  RH  031%=      5-min Rain = 0
KLA1 202241Z 16008KT 17/00 A3016 RMK A01 T01740002  RH  031%=      5-min Rain = 0
KLA1 202242Z 15009KT 17/00 A3016 RMK A01 T01730002  RH  031%=      5-min Rain = 0
KLA1 202243Z 16012KT 17/00 A3016 RMK A01 T01740004  RH  032%=      5-min Rain = 0
KLA1 202244Z 17011KT 18/00 A3016 RMK A01 T017500-0  RH  031%=      5-min Rain = 0
KLA1 202245Z 18012KT 17/M00 A3016 RMK A01 T01741002  RH  030%=      5-min Rain = 0
KLA1 202246Z 17010KT 17/M01 A3016 RMK A01 T01731005  RH  030%=      5-min Rain = 0
KLA1 202247Z 18009KT 17/M00 A3016 RMK A01 T01711004  RH  030%=      5-min Rain = 0
KLA1 202248Z 17010KT 17/M00 A3016 RMK A01 T01711003  RH  031%=      5-min Rain = 0
KLA1 202249Z 17009KT 17/M01 A3015 RMK A01 T01711005  RH  030%=      5-min Rain = 0
KLA1 202250Z 16009KT 17/M00 A3015 RMK A01 T01711001  RH  031%=      5-min Rain = 0
KLA1 202251Z 17011KT 17/M00 A3015 RMK A01 T01701004  RH  031%=      5-min Rain = 0
KLA1 202252Z 16010G15KT 17/M00 A3015 RMK A01 T01701004  RH  031%=      5-min Rain = 0
KLA1 202253Z 18010KT 17/M00 A3015 RMK A01 T01711001  RH  031%=      5-min Rain = 0
KLA1 202254Z 18010KT 17/M00 A3015 RMK A01 T01711002  RH  031%=      5-min Rain = 0
KLA1 202255Z 17010KT 17/M00 A3015 RMK A01 T01711002  RH  031%=      5-min Rain = 0
KLA1 202256Z 17009KT 17/M00 A3015 RMK A01 T01711002  RH  031%=      5-min Rain = 0
KLA1 202257Z 17008KT 17/M00 A3015 RMK A01 T01711002  RH  031%=      5-min Rain = 0
KLA1 202258Z 18009KT 17/M00 A3015 RMK A01 T01711001  RH  031%=      5-min Rain = 0
KLA1 202259Z 17009KT 17/M00 A3015 RMK A01 T01711002  RH  031%=      5-min Rain = 0
KLA1 202300Z 16009KT 17/M00 A3015 RMK A01 T01701003  RH  031%=      5-min Rain = 0
KLA1 202301Z 17009KT 17/00 A3015 RMK A01 T017000-0  RH  031%=      5-min Rain = 0
KLA1 202302Z 17009KT 17/00 A3015 RMK A01 T01700000  RH  032%=      5-min Rain = 0
KLA1 202303Z 17009KT 17/00 A3015 RMK A01 T01690000  RH  032%=      5-min Rain = 0
KLA1 202304Z 17010KT 17/M00 A3015 RMK A01 T01691001  RH  032%=      5-min Rain = 0
KLA1 202305Z 18010KT 17/M00 A3015 RMK A01 T01691003  RH  031%=      5-min Rain = 0
KLA1 202306Z 16009KT 17/M00 A3015 RMK A01 T01691001  RH  032%=      5-min Rain = 0
KLA1 202307Z 18009KT 17/M00 A3015 RMK A01 T01681001  RH  032%=      5-min Rain = 0
KLA1 202308Z 17008KT 17/M00 A3015 RMK A01 T01681003  RH  031%=      5-min Rain = 0
KLA1 202309Z 17008KT 17/M00 A3015 RMK A01 T01671002  RH  032%=      5-min Rain = 0
KLA1 202310Z 17008KT 17/M00 A3015 RMK A01 T01671004  RH  031%=      5-min Rain = 0
KLA1 202311Z 17007KT 17/M00 A3015 RMK A01 T01671003  RH  031%=      5-min Rain = 0
KLA1 202312Z 16008KT 17/M00 A3015 RMK A01 T01671001  RH  032%=      5-min Rain = 0
KLA1 202313Z 15007KT 17/00 A3015 RMK A01 T016700-0  RH  032%=      5-min Rain = 0
KLA1 202314Z 16008KT 17/00 A3015 RMK A01 T01670002  RH  033%=      5-min Rain = 0
KLA1 202315Z 15009KT 17/00 A3015 RMK A01 T01680001  RH  032%=      5-min Rain = 0
KLA1 202316Z 16009KT 17/00 A3015 RMK A01 T01670001  RH  032%=      5-min Rain = 0
KLA1 202317Z 16008KT 17/00 A3015 RMK A01 T01660001  RH  033%=      5-min Rain = 0
KLA1 202318Z 15010KT 17/00 A3015 RMK A01 T01660003  RH  033%=      5-min Rain = 0
KLA1 202319Z 15011KT 16/00 A3015 RMK A01 T016400-0  RH  033%=      5-min Rain = 0
KLA1 202320Z 15010KT 16/M00 A3015 RMK A01 T01631001  RH  033%=      5-min Rain = 0
KLA1 202321Z 14009KT 16/00 A3015 RMK A01 T016200-0  RH  033%=      5-min Rain = 0
KLA1 202322Z 14010KT 16/00 A3015 RMK A01 T01610002  RH  034%=      5-min Rain = 0
KLA1 202323Z 14009KT 16/00 A3015 RMK A01 T01610000  RH  033%=      5-min Rain = 0
KLA1 202324Z 14007KT 16/00 A3015 RMK A01 T01610001  RH  034%=      5-min Rain = 0
KLA1 202325Z 15009KT 16/00 A3015 RMK A01 T01610002  RH  034%=      5-min Rain = 0
KLA1 202326Z 14008KT 16/00 A3015 RMK A01 T01610002  RH  034%=      5-min Rain = 0
KLA1 202327Z 15009KT 16/00 A3015 RMK A01 T01600002  RH  034%=      5-min Rain = 0
KLA1 202328Z 16010KT 16/00 A3015 RMK A01 T01590002  RH  034%=      5-min Rain = 0
KLA1 202329Z 15010KT 16/00 A3015 RMK A01 T01590003  RH  035%=      5-min Rain = 0
KLA1 202330Z 14009KT 16/00 A3014 RMK A01 T01580004  RH  035%=      5-min Rain = 0
KLA1 202331Z 13007KT 16/01 A3014 RMK A01 T01570006  RH  036%=      5-min Rain = 0
KLA1 202332Z 13008KT 16/01 A3014 RMK A01 T01570007  RH  036%=      5-min Rain = 0
KLA1 202333Z 14009KT 16/01 A3014 RMK A01 T01570007  RH  036%=      5-min Rain = 0
KLA1 202334Z 14008KT 16/01 A3014 RMK A01 T01570007  RH  036%=      5-min Rain = 0
KLA1 202335Z 14010KT 16/01 A3014 RMK A01 T01570008  RH  036%=      5-min Rain = 0
KLA1 202336Z 13010KT 16/01 A3014 RMK A01 T01570007  RH  036%=      5-min Rain = 0
KLA1 202337Z 14008KT 16/01 A3014 RMK A01 T01570008  RH  036%=      5-min Rain = 0
KLA1 202338Z 15009KT 16/01 A3014 RMK A01 T01560009  RH  037%=      5-min Rain = 0
KLA1 202339Z 14009KT 16/01 A3014 RMK A01 T01560008  RH  037%=      5-min Rain = 0
KLA1 202340Z 14009KT 16/01 A3014 RMK A01 T01550008  RH  037%=      5-min Rain = 0
KLA1 202341Z 14008KT 16/01 A3014 RMK A01 T01550008  RH  037%=      5-min Rain = 0
KLA1 202342Z 14011KT 15/01 A3014 RMK A01 T01540007  RH  037%=      5-min Rain = 0
KLA1 202343Z 15010KT 15/01 A3014 RMK A01 T01540007  RH  037%=      5-min Rain = 0
KLA1 202344Z 14008KT 15/01 A3014 RMK A01 T01530007  RH  037%=      5-min Rain = 0
KLA1 202345Z 14009KT 15/01 A3014 RMK A01 T01520008  RH  037%=      5-min Rain = 0
KLA1 202346Z 14008KT 15/01 A3014 RMK A01 T01510008  RH  038%=      5-min Rain = 0
KLA1 202347Z 14007KT 15/01 A3014 RMK A01 T01500008  RH  038%=      5-min Rain = 0
KLA1 202348Z 14009KT 15/01 A3014 RMK A01 T01490007  RH  038%=      5-min Rain = 0
KLA1 202349Z 13008KT 15/01 A3014 RMK A01 T01490008  RH  038%=      5-min Rain = 0
KLA1 202350Z 13008KT 15/01 A3014 RMK A01 T01480008  RH  039%=      5-min Rain = 0
KLA1 202351Z 13008KT 15/01 A3014 RMK A01 T01470008  RH  039%=      5-min Rain = 0
KLA1 202352Z 13008KT 15/01 A3014 RMK A01 T01460008  RH  039%=      5-min Rain = 0
KLA1 202353Z 13009KT 15/01 A3014 RMK A01 T01450008  RH  039%=      5-min Rain = 0
KLA1 202354Z 13009KT 15/01 A3014 RMK A01 T01450007  RH  039%=      5-min Rain = 0
KLA1 202355Z 13008KT 14/01 A3014 RMK A01 T01440008  RH  039%=      5-min Rain = 0
KLA1 202356Z 13008KT 14/01 A3014 RMK A01 T01430008  RH  040%=      5-min Rain = 0
KLA1 202357Z 13008KT 14/01 A3014 RMK A01 T01420008  RH  040%=      5-min Rain = 0
KLA1 202358Z 13010KT 14/01 A3014 RMK A01 T01420008  RH  040%=      5-min Rain = 0
KLA1 202359Z 12009KT 14/01 A3014 RMK A01 T01410007  RH  040%=      5-min Rain = 0
KLA1 210000Z 13008G13KT 14/01 A3014 RMK A01 T01410007  RH  040%=      5-min Rain = 0
KLA1 210001Z 13008KT 14/01 A3014 RMK A01 T01410008  RH  040%=      5-min Rain = 0
KLA1 210002Z 12008KT 14/01 A3014 RMK A01 T01410008  RH  040%=      5-min Rain = 0
KLA1 210003Z 13008KT 14/01 A3014 RMK A01 T01400009  RH  041%=      5-min Rain = 0
KLA1 210004Z 12008KT 14/01 A3014 RMK A01 T01390009  RH  041%=      5-min Rain = 0
KLA1 210005Z 12009KT 14/01 A3014 RMK A01 T01380009  RH  041%=      5-min Rain = 0
KLA1 210006Z 12009KT 14/01 A3014 RMK A01 T01380008  RH  041%=      5-min Rain = 0
KLA1 210007Z 12008KT 14/01 A3014 RMK A01 T01380008  RH  041%=      5-min Rain = 0
KLA1 210008Z 13008KT 14/01 A3014 RMK A01 T01380008  RH  041%=      5-min Rain = 0
KLA1 210009Z 13009KT 14/01 A3014 RMK A01 T01380007  RH  041%=      5-min Rain = 0
KLA1 210010Z 12009KT 14/01 A3014 RMK A01 T01370008  RH  041%=      5-min Rain = 0
KLA1 210011Z 13010KT 14/01 A3014 RMK A01 T01370006  RH  041%=      5-min Rain = 0
KLA1 210012Z 12009KT 14/01 A3014 RMK A01 T01380006  RH  041%=      5-min Rain = 0
KLA1 210013Z 12008KT 14/01 A3014 RMK A01 T01370007  RH  041%=      5-min Rain = 0
KLA1 210014Z 13010KT 14/01 A3014 RMK A01 T01370007  RH  041%=      5-min Rain = 0
KLA1 210015Z 13009KT 14/01 A3014 RMK A01 T01360007  RH  041%=      5-min Rain = 0
KLA1 210016Z 12008KT 14/01 A3014 RMK A01 T01350007  RH  041%=      5-min Rain = 0
KLA1 210017Z 12009KT 14/01 A3014 RMK A01 T01350007  RH  042%=      5-min Rain = 0
KLA1 210018Z 12008KT 13/01 A3014 RMK A01 T01340007  RH  042%=      5-min Rain = 0
KLA1 210019Z 12008KT 13/01 A3014 RMK A01 T01340008  RH  042%=      5-min Rain = 0
KLA1 210020Z 12008KT 13/01 A3014 RMK A01 T01340008  RH  042%=      5-min Rain = 0
KLA1 210021Z 12009KT 13/01 A3014 RMK A01 T01330008  RH  042%=      5-min Rain = 0
KLA1 210022Z 12009KT 13/01 A3014 RMK A01 T01330007  RH  042%=      5-min Rain = 0
KLA1 210023Z 12008KT 13/01 A3014 RMK A01 T01330006  RH  042%=      5-min Rain = 0
KLA1 210024Z 12009KT 13/01 A3014 RMK A01 T01330006  RH  042%=      5-min Rain = 0
KLA1 210025Z 11008KT 13/01 A3014 RMK A01 T01330006  RH  042%=      5-min Rain = 0
KLA1 210026Z 12009KT 13/01 A3014 RMK A01 T01320006  RH  042%=      5-min Rain = 0
KLA1 210027Z 12009KT 13/01 A3014 RMK A01 T01320006  RH  042%=      5-min Rain = 0
KLA1 210028Z 12009KT 13/01 A3014 RMK A01 T01320006  RH  042%=      5-min Rain = 0
KLA1 210029Z 12009KT 13/01 A3014 RMK A01 T01310005  RH  042%=      5-min Rain = 0
KLA1 210030Z 12009KT 13/01 A3014 RMK A01 T01310005  RH  042%=      5-min Rain = 0
KLA1 210031Z 12009KT 13/01 A3014 RMK A01 T01310005  RH  042%=      5-min Rain = 0
KLA1 210032Z 13009KT 13/01 A3015 RMK A01 T01310005  RH  042%=      5-min Rain = 0
KLA1 210033Z 13009KT 13/00 A3015 RMK A01 T01310004  RH  042%=      5-min Rain = 0
KLA1 210034Z 12009KT 13/01 A3015 RMK A01 T01300005  RH  042%=      5-min Rain = 0
KLA1 210035Z 12009KT 13/01 A3015 RMK A01 T01300005  RH  042%=      5-min Rain = 0
KLA1 210036Z 12009KT 13/00 A3015 RMK A01 T01300004  RH  042%=      5-min Rain = 0
KLA1 210037Z 12008KT 13/00 A3015 RMK A01 T01300003  RH  042%=      5-min Rain = 0
KLA1 210038Z 12010KT 13/00 A3015 RMK A01 T01300003  RH  042%=      5-min Rain = 0
KLA1 210039Z 12010KT 13/00 A3015 RMK A01 T01300003  RH  042%=      5-min Rain = 0
KLA1 210040Z 13009KT 13/00 A3015 RMK A01 T01300003  RH  042%=      5-min Rain = 0
KLA1 210041Z 13010KT 13/00 A3015 RMK A01 T01300003  RH  042%=      5-min Rain = 0
KLA1 210042Z 13009KT 13/00 A3015 RMK A01 T01300003  RH  042%=      5-min Rain = 0
KLA1 210043Z 12009KT 13/00 A3014 RMK A01 T01300004  RH  042%=      5-min Rain = 0
KLA1 210044Z 12008KT 13/00 A3015 RMK A01 T01290004  RH  042%=      5-min Rain = 0
KLA1 210045Z 12008KT 13/01 A3014 RMK A01 T01280005  RH  043%=      5-min Rain = 0
KLA1 210046Z 12008KT 13/00 A3015 RMK A01 T01270004  RH  043%=      5-min Rain = 0
KLA1 210047Z 12008KT 13/01 A3015 RMK A01 T01270005  RH  043%=      5-min Rain = 0
KLA1 210048Z 12009KT 13/01 A3014 RMK A01 T01260005  RH  043%=      5-min Rain = 0
KLA1 210049Z 12011KT 13/00 A3014 RMK A01 T01260003  RH  043%=      5-min Rain = 0
KLA1 210050Z 12009KT 13/00 A3014 RMK A01 T01270003  RH  043%=      5-min Rain = 0
KLA1 210051Z 12009KT 13/00 A3014 RMK A01 T01270004  RH  043%=      5-min Rain = 0
KLA1 210052Z 12010KT 13/00 A3014 RMK A01 T01260004  RH  043%=      5-min Rain = 0
KLA1 210053Z 12009KT 13/01 A3014 RMK A01 T01260005  RH  043%=      5-min Rain = 0
KLA1 210054Z 12009KT 13/01 A3014 RMK A01 T01250005  RH  044%=      5-min Rain = 0
KLA1 210055Z 12009KT 13/01 A3014 RMK A01 T01250005  RH  044%=      5-min Rain = 0
KLA1 210056Z 12009KT 13/00 A3014 RMK A01 T01250004  RH  044%=      5-min Rain = 0
KLA1 210057Z 12010KT 13/00 A3014 RMK A01 T01250004  RH  043%=      5-min Rain = 0
KLA1 210058Z 12009KT 13/00 A3014 RMK A01 T01250003  RH  043%=      5-min Rain = 0
KLA1 210059Z 12009KT 13/00 A3014 RMK A01 T01250004  RH  043%=      5-min Rain = 0
KLA1 210100Z 12009KT 13/00 A3014 RMK A01 T01250003  RH  043%=      5-min Rain = 0
KLA1 210101Z 12009KT 13/00 A3014 RMK A01 T01250004  RH  043%=      5-min Rain = 0
KLA1 210102Z 13009KT 12/00 A3014 RMK A01 T01240004  RH  044%=      5-min Rain = 0
KLA1 210103Z 13008KT 12/00 A3014 RMK A01 T01240004  RH  044%=      5-min Rain = 0
KLA1 210104Z 12009KT 12/00 A3014 RMK A01 T01230004  RH  044%=      5-min Rain = 0
KLA1 210105Z 13010KT 12/00 A3014 RMK A01 T01220004  RH  044%=      5-min Rain = 0
KLA1 210106Z 12009KT 12/00 A3014 RMK A01 T01220003  RH  044%=      5-min Rain = 0
KLA1 210107Z 13010KT 12/00 A3014 RMK A01 T01220004  RH  044%=      5-min Rain = 0
KLA1 210108Z 12009KT 12/00 A3014 RMK A01 T01220004  RH  044%=      5-min Rain = 0
KLA1 210109Z 12010KT 12/00 A3014 RMK A01 T01220004  RH  044%=      5-min Rain = 0
KLA1 210110Z 12008KT 12/00 A3014 RMK A01 T01220004  RH  044%=      5-min Rain = 0
KLA1 210111Z 12008KT 12/01 A3014 RMK A01 T01220005  RH  045%=      5-min Rain = 0
KLA1 210112Z 12008KT 12/00 A3014 RMK A01 T01210004  RH  045%=      5-min Rain = 0
KLA1 210113Z 13009KT 12/00 A3014 RMK A01 T01200004  RH  045%=      5-min Rain = 0
KLA1 210114Z 13009KT 12/00 A3015 RMK A01 T01200003  RH  045%=      5-min Rain = 0
KLA1 210115Z 13011KT 12/00 A3014 RMK A01 T01200003  RH  045%=      5-min Rain = 0
KLA1 210116Z 13009KT 12/00 A3014 RMK A01 T01200003  RH  044%=      5-min Rain = 0
KLA1 210117Z 13009KT 12/00 A3014 RMK A01 T01210003  RH  044%=      5-min Rain = 0
KLA1 210118Z 13008KT 12/00 A3014 RMK A01 T01210004  RH  045%=      5-min Rain = 0
KLA1 210119Z 13007KT 12/00 A3014 RMK A01 T01200004  RH  045%=      5-min Rain = 0
KLA1 210120Z 13007KT 12/00 A3014 RMK A01 T01190004  RH  045%=      5-min Rain = 0
KLA1 210121Z 13008KT 12/00 A3014 RMK A01 T01180004  RH  045%=      5-min Rain = 0
KLA1 210122Z 13008KT 12/00 A3014 RMK A01 T01180004  RH  045%=      5-min Rain = 0
KLA1 210123Z 12008KT 12/00 A3014 RMK A01 T01180004  RH  045%=      5-min Rain = 0
KLA1 210124Z 13009KT 12/00 A3014 RMK A01 T01170004  RH  046%=      5-min Rain = 0
KLA1 210125Z 12007KT 12/00 A3014 RMK A01 T01170004  RH  046%=      5-min Rain = 0
KLA1 210126Z 12006KT 12/00 A3014 RMK A01 T01160004  RH  046%=      5-min Rain = 0
KLA1 210127Z 12006KT 12/00 A3014 RMK A01 T01160004  RH  046%=      5-min Rain = 0
KLA1 210128Z 12006KT 12/00 A3014 RMK A01 T01150004  RH  046%=      5-min Rain = 0
KLA1 210129Z 12007KT 12/00 A3014 RMK A01 T01150004  RH  047%=      5-min Rain = 0
KLA1 210130Z 12007KT 11/00 A3014 RMK A01 T01140004  RH  047%=      5-min Rain = 0
KLA1 210131Z 12008KT 11/00 A3014 RMK A01 T01140004  RH  047%=      5-min Rain = 0
KLA1 210132Z 12008KT 11/00 A3014 RMK A01 T01140003  RH  046%=      5-min Rain = 0
KLA1 210133Z 12007KT 11/00 A3014 RMK A01 T01140003  RH  046%=      5-min Rain = 0
KLA1 210134Z 13007KT 12/00 A3014 RMK A01 T01150004  RH  046%=      5-min Rain = 0
KLA1 210135Z 13007KT 11/00 A3014 RMK A01 T01140004  RH  047%=      5-min Rain = 0
KLA1 210136Z 12008KT 11/00 A3014 RMK A01 T01140004  RH  047%=      5-min Rain = 0
KLA1 210137Z 12008KT 11/00 A3014 RMK A01 T01140004  RH  047%=      5-min Rain = 0
KLA1 210138Z 12008KT 11/00 A3014 RMK A01 T01140003  RH  046%=      5-min Rain = 0
KLA1 210139Z 12007KT 11/00 A3014 RMK A01 T01140003  RH  046%=      5-min Rain = 0
KLA1 210140Z 13006KT 12/00 A3014 RMK A01 T01150003  RH  046%=      5-min Rain = 0
KLA1 210141Z 13007KT 11/00 A3015 RMK A01 T01140004  RH  047%=      5-min Rain = 0
KLA1 210142Z 12007KT 11/00 A3015 RMK A01 T01130004  RH  047%=      5-min Rain = 0
KLA1 210143Z 12007KT 11/00 A3015 RMK A01 T01130004  RH  047%=      5-min Rain = 0
KLA1 210144Z 12006KT 11/00 A3015 RMK A01 T01130004  RH  047%=      5-min Rain = 0
KLA1 210145Z 13007KT 11/00 A3015 RMK A01 T01130004  RH  047%=      5-min Rain = 0
KLA1 210146Z 13007KT 11/00 A3015 RMK A01 T01120004  RH  047%=      5-min Rain = 0
KLA1 210147Z 12007KT 11/00 A3015 RMK A01 T01110004  RH  048%=      5-min Rain = 0
KLA1 210148Z 12007KT 11/00 A3015 RMK A01 T01110004  RH  048%=      5-min Rain = 0
KLA1 210149Z 12006KT 11/00 A3015 RMK A01 T01110004  RH  048%=      5-min Rain = 0
KLA1 210150Z 12007KT 11/00 A3015 RMK A01 T01110004  RH  048%=      5-min Rain = 0
KLA1 210151Z 12007KT 11/00 A3015 RMK A01 T01110004  RH  048%=      5-min Rain = 0
KLA1 210152Z 12008KT 11/00 A3015 RMK A01 T01110003  RH  047%=      5-min Rain = 0
KLA1 210153Z 12007KT 11/00 A3015 RMK A01 T01110004  RH  047%=      5-min Rain = 0
KLA1 210154Z 12007KT 11/00 A3015 RMK A01 T01110004  RH  048%=      5-min Rain = 0
KLA1 210155Z 12007KT 11/00 A3015 RMK A01 T01110004  RH  048%=      5-min Rain = 0
KLA1 210156Z 12007KT 11/00 A3015 RMK A01 T01110004  RH  048%=      5-min Rain = 0
KLA1 210157Z 12007KT 11/00 A3015 RMK A01 T01110004  RH  048%=      5-min Rain = 0
KLA1 210158Z 12007KT 11/00 A3015 RMK A01 T01110004  RH  048%=      5-min Rain = 0
KLA1 210159Z 12008KT 11/00 A3015 RMK A01 T01110004  RH  048%=      5-min Rain = 0
KLA1 210200Z 12009KT 11/00 A3015 RMK A01 T01110003  RH  047%=      5-min Rain = 0
KLA1 210201Z 12009KT 11/00 A3015 RMK A01 T01110004  RH  047%=      5-min Rain = 0
KLA1 210202Z 12008KT 11/00 A3015 RMK A01 T01110004  RH  048%=      5-min Rain = 0
KLA1 210203Z 12008KT 11/00 A3015 RMK A01 T01100004  RH  048%=      5-min Rain = 0
KLA1 210204Z 12009KT 11/00 A3015 RMK A01 T01100004  RH  048%=      5-min Rain = 0
KLA1 210205Z 12009KT 11/00 A3015 RMK A01 T01100003  RH  048%=      5-min Rain = 0
KLA1 210206Z 12009KT 11/00 A3015 RMK A01 T01100003  RH  048%=      5-min Rain = 0
KLA1 210207Z 12009KT 11/00 A3015 RMK A01 T01100003  RH  048%=      5-min Rain = 0
KLA1 210208Z 12009KT 11/00 A3015 RMK A01 T01100004  RH  048%=      5-min Rain = 0
KLA1 210209Z 12008KT 11/00 A3015 RMK A01 T01100004  RH  048%=      5-min Rain = 0
KLA1 210210Z 12009KT 11/00 A3015 RMK A01 T01100004  RH  048%=      5-min Rain = 0
KLA1 210211Z 12009KT 11/00 A3015 RMK A01 T01090004  RH  048%=      5-min Rain = 0
KLA1 210212Z 12009KT 11/00 A3015 RMK A01 T01090004  RH  048%=      5-min Rain = 0
KLA1 210213Z 12010KT 11/00 A3015 RMK A01 T01090004  RH  048%=      5-min Rain = 0
KLA1 210214Z 11009KT 11/00 A3015 RMK A01 T01090004  RH  048%=      5-min Rain = 0
KLA1 210215Z 11010KT 11/00 A3015 RMK A01 T01090004  RH  048%=      5-min Rain = 0
KLA1 210216Z 12010KT 11/00 A3015 RMK A01 T01090004  RH  048%=      5-min Rain = 0
KLA1 210217Z 12010KT 11/00 A3015 RMK A01 T01090003  RH  048%=      5-min Rain = 0
KLA1 210218Z 12010KT 11/00 A3015 RMK A01 T01090003  RH  048%=      5-min Rain = 0
KLA1 210219Z 12011KT 11/00 A3015 RMK A01 T01090003  RH  048%=      5-min Rain = 0
KLA1 210220Z 12010KT 11/00 A3015 RMK A01 T01090003  RH  048%=      5-min Rain = 0
KLA1 210221Z 12011KT 11/00 A3015 RMK A01 T01090004  RH  048%=      5-min Rain = 0
KLA1 210222Z 11010KT 11/00 A3015 RMK A01 T01090003  RH  048%=      5-min Rain = 0
KLA1 210223Z 12011KT 11/00 A3015 RMK A01 T01090003  RH  048%=      5-min Rain = 0
KLA1 210224Z 11010KT 11/00 A3015 RMK A01 T01090003  RH  048%=      5-min Rain = 0
KLA1 210225Z 11010KT 11/00 A3015 RMK A01 T01090003  RH  048%=      5-min Rain = 0
KLA1 210226Z 11010KT 11/00 A3015 RMK A01 T01090003  RH  048%=      5-min Rain = 0
KLA1 210227Z 11011KT 11/00 A3015 RMK A01 T01090002  RH  048%=      5-min Rain = 0
KLA1 210228Z 12010KT 11/00 A3015 RMK A01 T01100003  RH  048%=      5-min Rain = 0
KLA1 210229Z 11010KT 11/00 A3015 RMK A01 T01100002  RH  048%=      5-min Rain = 0
KLA1 210230Z 11011KT 11/00 A3015 RMK A01 T01090002  RH  047%=      5-min Rain = 0
KLA1 210231Z 11009KT 11/00 A3015 RMK A01 T01100002  RH  047%=      5-min Rain = 0
KLA1 210232Z 11009KT 11/00 A3015 RMK A01 T01100003  RH  047%=      5-min Rain = 0
KLA1 210233Z 11008KT 11/00 A3015 RMK A01 T01100003  RH  048%=      5-min Rain = 0
KLA1 210234Z 11008KT 11/00 A3015 RMK A01 T01090003  RH  048%=      5-min Rain = 0
KLA1 210235Z 11008KT 11/00 A3015 RMK A01 T01090003  RH  048%=      5-min Rain = 0
KLA1 210236Z 11009KT 11/00 A3015 RMK A01 T01080003  RH  048%=      5-min Rain = 0
KLA1 210237Z 11010KT 11/00 A3015 RMK A01 T01080003  RH  048%=      5-min Rain = 0
KLA1 210238Z 11009KT 11/00 A3015 RMK A01 T01080002  RH  048%=      5-min Rain = 0
KLA1 210239Z 11010KT 11/00 A3015 RMK A01 T01080002  RH  048%=      5-min Rain = 0
KLA1 210240Z 11009KT 11/00 A3015 RMK A01 T01090002  RH  048%=      5-min Rain = 0
KLA1 210241Z 11007KT 11/00 A3015 RMK A01 T01090003  RH  048%=      5-min Rain = 0
KLA1 210242Z 11009KT 11/00 A3015 RMK A01 T01080003  RH  048%=      5-min Rain = 0
KLA1 210243Z 11009KT 11/00 A3015 RMK A01 T01070003  RH  048%=      5-min Rain = 0
KLA1 210244Z 11010KT 11/00 A3015 RMK A01 T01070002  RH  048%=      5-min Rain = 0
KLA1 210245Z 11008KT 11/00 A3015 RMK A01 T01070002  RH  048%=      5-min Rain = 0
KLA1 210246Z 11009KT 11/00 A3015 RMK A01 T01070003  RH  048%=      5-min Rain = 0
KLA1 210247Z 11009KT 11/00 A3015 RMK A01 T01070003  RH  048%=      5-min Rain = 0
KLA1 210248Z 11008KT 11/00 A3015 RMK A01 T01060003  RH  049%=      5-min Rain = 0
KLA1 210249Z 11009KT 11/00 A3015 RMK A01 T01060003  RH  049%=      5-min Rain = 0
KLA1 210250Z 11009KT 11/00 A3015 RMK A01 T01060003  RH  049%=      5-min Rain = 0
KLA1 210251Z 12010KT 11/00 A3014 RMK A01 T01060002  RH  049%=      5-min Rain = 0
KLA1 210252Z 11010KT 11/00 A3014 RMK A01 T01060002  RH  048%=      5-min Rain = 0
KLA1 210253Z 11009KT 11/00 A3014 RMK A01 T01060002  RH  048%=      5-min Rain = 0
KLA1 210254Z 11010KT 11/00 A3014 RMK A01 T01060002  RH  048%=      5-min Rain = 0
KLA1 210255Z 12008KT 11/00 A3014 RMK A01 T01060001  RH  048%=      5-min Rain = 0
KLA1 210256Z 11009KT 11/00 A3014 RMK A01 T01070002  RH  048%=      5-min Rain = 0
KLA1 210257Z 11009KT 11/00 A3014 RMK A01 T01070002  RH  048%=      5-min Rain = 0
KLA1 210258Z 11009KT 11/00 A3014 RMK A01 T01060002  RH  048%=      5-min Rain = 0
KLA1 210259Z 11008KT 11/00 A3014 RMK A01 T01060002  RH  049%=      5-min Rain = 0
KLA1 210300Z 11009KT 11/00 A3014 RMK A01 T01050002  RH  049%=      5-min Rain = 0
KLA1 210301Z 11009KT 11/00 A3014 RMK A01 T01050002  RH  049%=      5-min Rain = 0
KLA1 210302Z 11009KT 11/00 A3014 RMK A01 T01050002  RH  049%=      5-min Rain = 0
KLA1 210303Z 11009KT 11/00 A3014 RMK A01 T01050002  RH  049%=      5-min Rain = 0
KLA1 210304Z 11009KT 11/00 A3014 RMK A01 T01050002  RH  049%=      5-min Rain = 0
KLA1 210305Z 11008KT 11/00 A3014 RMK A01 T01050002  RH  049%=      5-min Rain = 0
KLA1 210306Z 11008KT 10/00 A3014 RMK A01 T01040002  RH  049%=      5-min Rain = 0
KLA1 210307Z 11008KT 10/00 A3014 RMK A01 T01040002  RH  049%=      5-min Rain = 0
KLA1 210308Z 11009KT 10/00 A3014 RMK A01 T01030002  RH  049%=      5-min Rain = 0
KLA1 210309Z 11008KT 10/00 A3014 RMK A01 T01030002  RH  049%=      5-min Rain = 0
KLA1 210310Z 11008KT 10/00 A3014 RMK A01 T01030001  RH  049%=      5-min Rain = 0
KLA1 210311Z 11008KT 10/00 A3014 RMK A01 T01030002  RH  049%=      5-min Rain = 0
KLA1 210312Z 11008KT 10/00 A3014 RMK A01 T01030001  RH  049%=      5-min Rain = 0
KLA1 210313Z 11007KT 10/00 A3014 RMK A01 T01030001  RH  049%=      5-min Rain = 0
KLA1 210314Z 10008KT 10/00 A3014 RMK A01 T01030001  RH  049%=      5-min Rain = 0
KLA1 210315Z 11007KT 10/00 A3014 RMK A01 T01020001  RH  050%=      5-min Rain = 0
KLA1 210316Z 10010KT 10/00 A3014 RMK A01 T01020001  RH  050%=      5-min Rain = 0
KLA1 210317Z 11009KT 10/00 A3014 RMK A01 T01020001  RH  049%=      5-min Rain = 0
KLA1 210318Z 11008KT 10/00 A3014 RMK A01 T01030002  RH  049%=      5-min Rain = 0
KLA1 210319Z 10007KT 10/00 A3014 RMK A01 T01020001  RH  050%=      5-min Rain = 0
KLA1 210320Z 10008KT 10/00 A3014 RMK A01 T01020001  RH  050%=      5-min Rain = 0
KLA1 210321Z 10008KT 10/00 A3014 RMK A01 T01010001  RH  050%=      5-min Rain = 0
KLA1 210322Z 11008KT 10/00 A3014 RMK A01 T01010001  RH  050%=      5-min Rain = 0
KLA1 210323Z 11007KT 10/00 A3014 RMK A01 T01010001  RH  050%=      5-min Rain = 0
KLA1 210324Z 11008KT 10/00 A3014 RMK A01 T01010001  RH  050%=      5-min Rain = 0
KLA1 210325Z 10009KT 10/00 A3014 RMK A01 T01010001  RH  050%=      5-min Rain = 0
KLA1 210326Z 10008KT 10/00 A3014 RMK A01 T01010001  RH  050%=      5-min Rain = 0
KLA1 210327Z 11007KT 10/00 A3014 RMK A01 T01010000  RH  050%=      5-min Rain = 0
KLA1 210328Z 10009KT 10/00 A3014 RMK A01 T01010001  RH  050%=      5-min Rain = 0
KLA1 210329Z 10009KT 10/00 A3014 RMK A01 T01010000  RH  050%=      5-min Rain = 0
KLA1 210330Z 10007KT 10/00 A3013 RMK A01 T010100-0  RH  049%=      5-min Rain = 0
KLA1 210331Z 10008KT 10/00 A3013 RMK A01 T01010000  RH  049%=      5-min Rain = 0
KLA1 210332Z 10008KT 10/00 A3013 RMK A01 T01010001  RH  050%=      5-min Rain = 0
KLA1 210333Z 10008KT 10/00 A3013 RMK A01 T01010000  RH  050%=      5-min Rain = 0
KLA1 210334Z 10008KT 10/00 A3013 RMK A01 T010100-0  RH  049%=      5-min Rain = 0
KLA1 210335Z 10008KT 10/M00 A3013 RMK A01 T01011001  RH  049%=      5-min Rain = 0
KLA1 210336Z 10007KT 10/M00 A3013 RMK A01 T01021001  RH  049%=      5-min Rain = 0
KLA1 210337Z 10009KT 10/M00 A3013 RMK A01 T01021001  RH  049%=      5-min Rain = 0
KLA1 210338Z 10009KT 10/M00 A3013 RMK A01 T01021001  RH  049%=      5-min Rain = 0
KLA1 210339Z 10010KT 10/M00 A3013 RMK A01 T01021001  RH  049%=      5-min Rain = 0
KLA1 210340Z 10008KT 10/M00 A3013 RMK A01 T01021002  RH  048%=      5-min Rain = 0
KLA1 210341Z 11007KT 10/M00 A3013 RMK A01 T01031001  RH  048%=      5-min Rain = 0
KLA1 210342Z 10007KT 10/M00 A3013 RMK A01 T01031001  RH  048%=      5-min Rain = 0
KLA1 210343Z 10009KT 10/M00 A3013 RMK A01 T01031001  RH  048%=      5-min Rain = 0
KLA1 210344Z 11009KT 10/M00 A3013 RMK A01 T01021001  RH  049%=      5-min Rain = 0
KLA1 210345Z 10009KT 10/M00 A3013 RMK A01 T01021002  RH  049%=      5-min Rain = 0
KLA1 210346Z 10008KT 10/M00 A3013 RMK A01 T01031002  RH  048%=      5-min Rain = 0
KLA1 210347Z 10008KT 10/M00 A3012 RMK A01 T01031001  RH  049%=      5-min Rain = 0
KLA1 210348Z 10009KT 10/M00 A3013 RMK A01 T01011001  RH  049%=      5-min Rain = 0
KLA1 210349Z 10010KT 10/M00 A3012 RMK A01 T01011002  RH  049%=      5-min Rain = 0
KLA1 210350Z 08009KT 10/M00 A3012 RMK A01 T01011001  RH  049%=      5-min Rain = 0
KLA1 210351Z 10010KT 10/M00 A3012 RMK A01 T01011001  RH  049%=      5-min Rain = 0
KLA1 210352Z 10008KT 10/M00 A3013 RMK A01 T01011002  RH  049%=      5-min Rain = 0
KLA1 210353Z 10008KT 10/M00 A3013 RMK A01 T01011002  RH  049%=      5-min Rain = 0
KLA1 210354Z 09010KT 10/M00 A3013 RMK A01 T01021002  RH  049%=      5-min Rain = 0
KLA1 210355Z 09008KT 10/M00 A3013 RMK A01 T01021002  RH  049%=      5-min Rain = 0
KLA1 210356Z 10010KT 10/M00 A3013 RMK A01 T01011002  RH  049%=      5-min Rain = 0
KLA1 210357Z 09010KT 10/M00 A3012 RMK A01 T01011003  RH  048%=      5-min Rain = 0
KLA1 210358Z 09007KT 10/M00 A3012 RMK A01 T01021003  RH  048%=      5-min Rain = 0
KLA1 210359Z 10009KT 10/M00 A3012 RMK A01 T01021002  RH  048%=      5-min Rain = 0
KLA1 210400Z 10008KT 10/M00 A3012 RMK A01 T01021002  RH  048%=      5-min Rain = 0
KLA1 210401Z 09009KT 10/M00 A3012 RMK A01 T01021003  RH  048%=      5-min Rain = 0
KLA1 210402Z 09009KT 10/M00 A3012 RMK A01 T01021002  RH  048%=      5-min Rain = 0
KLA1 210403Z 10007KT 10/M00 A3012 RMK A01 T01011002  RH  049%=      5-min Rain = 0
KLA1 210404Z 09009KT 10/M00 A3012 RMK A01 T01011002  RH  049%=      5-min Rain = 0
KLA1 210405Z 09009KT 10/M00 A3012 RMK A01 T01011002  RH  049%=      5-min Rain = 0
KLA1 210406Z 10010KT 10/M00 A3012 RMK A01 T01011002  RH  049%=      5-min Rain = 0
KLA1 210407Z 10008KT 10/M00 A3012 RMK A01 T01011003  RH  048%=      5-min Rain = 0
KLA1 210408Z 09008KT 10/M00 A3012 RMK A01 T01011002  RH  049%=      5-min Rain = 0
KLA1 210409Z 09008KT 10/M00 A3012 RMK A01 T01011003  RH  049%=      5-min Rain = 0
KLA1 210410Z 10009KT 10/M00 A3012 RMK A01 T01011002  RH  049%=      5-min Rain = 0
KLA1 210411Z 09008KT 10/M00 A3012 RMK A01 T01001003  RH  049%=      5-min Rain = 0
KLA1 210412Z 10008KT 10/M00 A3012 RMK A01 T01001003  RH  049%=      5-min Rain = 0
KLA1 210413Z 10009KT 10/M00 A3012 RMK A01 T01001003  RH  049%=      5-min Rain = 0
KLA1 210414Z 10009KT 10/M00 A3012 RMK A01 T01001003  RH  049%=      5-min Rain = 0
KLA1 210415Z 11008KT 10/M00 A3012 RMK A01 T01011004  RH  048%=      5-min Rain = 0
KLA1 210416Z 11007KT 10/M00 A3012 RMK A01 T01011003  RH  048%=      5-min Rain = 0
KLA1 210417Z 10009KT 10/M00 A3012 RMK A01 T01011004  RH  048%=      5-min Rain = 0
KLA1 210418Z 11008KT 10/M00 A3012 RMK A01 T01011004  RH  048%=      5-min Rain = 0
KLA1 210419Z 10006KT 10/M00 A3012 RMK A01 T01011003  RH  048%=      5-min Rain = 0
KLA1 210420Z 11007KT 10/M00 A3012 RMK A01 T01011003  RH  048%=      5-min Rain = 0
KLA1 210421Z 11008KT 10/M00 A3012 RMK A01 T01011003  RH  048%=      5-min Rain = 0
KLA1 210422Z 10008KT 10/M00 A3012 RMK A01 T01001003  RH  048%=      5-min Rain = 0
KLA1 210423Z 11008KT 10/M00 A3012 RMK A01 T01011004  RH  048%=      5-min Rain = 0
KLA1 210424Z 10008KT 10/M00 A3012 RMK A01 T01011004  RH  048%=      5-min Rain = 0
KLA1 210425Z 10009KT 10/M00 A3012 RMK A01 T01021004  RH  048%=      5-min Rain = 0
KLA1 210426Z 10009KT 10/M00 A3012 RMK A01 T01021004  RH  048%=      5-min Rain = 0
KLA1 210427Z 11007KT 10/M00 A3012 RMK A01 T01021004  RH  048%=      5-min Rain = 0
KLA1 210428Z 11007KT 10/M00 A3012 RMK A01 T01021004  RH  048%=      5-min Rain = 0
KLA1 210429Z 10007KT 10/M00 A3012 RMK A01 T01011004  RH  048%=      5-min Rain = 0
KLA1 210430Z 11008KT 10/M00 A3012 RMK A01 T01001004  RH  048%=      5-min Rain = 0
KLA1 210431Z 11009KT 10/M00 A3012 RMK A01 T01011004  RH  048%=      5-min Rain = 0
KLA1 210432Z 10011KT 10/M01 A3012 RMK A01 T01001005  RH  048%=      5-min Rain = 0
KLA1 210433Z 11010KT 10/M01 A3012 RMK A01 T01011005  RH  048%=      5-min Rain = 0
KLA1 210434Z 10007KT 10/M01 A3012 RMK A01 T01021005  RH  047%=      5-min Rain = 0
KLA1 210435Z 11009KT 10/M01 A3012 RMK A01 T01021005  RH  048%=      5-min Rain = 0
KLA1 210436Z 10008KT 10/M00 A3012 RMK A01 T01011004  RH  048%=      5-min Rain = 0
KLA1 210437Z 11007KT 10/M01 A3012 RMK A01 T01001005  RH  048%=      5-min Rain = 0
KLA1 210438Z 10009KT 10/M01 A3012 RMK A01 T01001005  RH  048%=      5-min Rain = 0
KLA1 210439Z 11009KT 10/M01 A3012 RMK A01 T01001005  RH  048%=      5-min Rain = 0
KLA1 210440Z 11010KT 10/M01 A3012 RMK A01 T01001006  RH  048%=      5-min Rain = 0
KLA1 210441Z 11008KT 10/M01 A3012 RMK A01 T01001006  RH  048%=      5-min Rain = 0
KLA1 210442Z 10007KT 10/M01 A3012 RMK A01 T01001006  RH  048%=      5-min Rain = 0
KLA1 210443Z 11008KT 10/M01 A3012 RMK A01 T01001005  RH  048%=      5-min Rain = 0
KLA1 210444Z 11008KT 10/M01 A3012 RMK A01 T01001005  RH  048%=      5-min Rain = 0
KLA1 210445Z 10008KT 10/M01 A3012 RMK A01 T01001005  RH  048%=      5-min Rain = 0
KLA1 210446Z 10008KT 10/M01 A3012 RMK A01 T01001006  RH  048%=      5-min Rain = 0
KLA1 210447Z 10008KT 10/M01 A3012 RMK A01 T01001006  RH  048%=      5-min Rain = 0
KLA1 210448Z 10008KT 10/M01 A3012 RMK A01 T00991006  RH  048%=      5-min Rain = 0
KLA1 210449Z 10008KT 10/M01 A3012 RMK A01 T00991006  RH  048%=      5-min Rain = 0
KLA1 210450Z 10008KT 10/M01 A3011 RMK A01 T00981006  RH  048%=      5-min Rain = 0

Page generated in 0.0697 seconds.